Observation data for Estelline on 12/10/2018      Previous  Date  Next       Current Mesonet Observations  Soil Data  Daily Summary Page  Observations in Plain Language
KES1 100600Z 30006KT 02/M02 A3036 RMK A01 T00181018  RH  077%=      5-min Rain = 0
KES1 100601Z 30007KT 02/M02 A3036 RMK A01 T00181018  RH  077%=      5-min Rain = 0
KES1 100602Z 29007KT 02/M02 A3036 RMK A01 T00181018  RH  077%=      5-min Rain = 0
KES1 100603Z 30007KT 02/M02 A3036 RMK A01 T00191018  RH  077%=      5-min Rain = 0
KES1 100604Z 30008KT 02/M02 A3036 RMK A01 T00181018  RH  077%=      5-min Rain = 0
KES1 100605Z 29008KT 02/M02 A3036 RMK A01 T00181018  RH  077%=      5-min Rain = 0
KES1 100606Z 29009KT 02/M02 A3036 RMK A01 T00171019  RH  077%=      5-min Rain = 0
KES1 100607Z 29008KT 02/M02 A3037 RMK A01 T00161019  RH  078%=      5-min Rain = 0
KES1 100608Z 29007KT 02/M02 A3037 RMK A01 T00161019  RH  078%=      5-min Rain = 0
KES1 100609Z 29007KT 02/M02 A3036 RMK A01 T00151019  RH  078%=      5-min Rain = 0
KES1 100610Z 29007KT 02/M02 A3036 RMK A01 T00151019  RH  078%=      5-min Rain = 0
KES1 100611Z 28007KT 02/M02 A3036 RMK A01 T00151019  RH  078%=      5-min Rain = 0
KES1 100612Z 28007KT 02/M02 A3036 RMK A01 T00151019  RH  078%=      5-min Rain = 0
KES1 100613Z 28007KT 01/M02 A3036 RMK A01 T00141019  RH  078%=      5-min Rain = 0
KES1 100614Z 28008KT 01/M02 A3036 RMK A01 T00141019  RH  078%=      5-min Rain = 0
KES1 100615Z 28007KT 01/M02 A3036 RMK A01 T00141020  RH  078%=      5-min Rain = 0
KES1 100616Z 28008KT 01/M02 A3036 RMK A01 T00141020  RH  078%=      5-min Rain = 0
KES1 100617Z 28007KT 01/M02 A3036 RMK A01 T00141020  RH  078%=      5-min Rain = 0
KES1 100618Z 28009KT 01/M02 A3036 RMK A01 T00131020  RH  079%=      5-min Rain = 0
KES1 100619Z 28010KT 01/M02 A3036 RMK A01 T00131019  RH  079%=      5-min Rain = 0
KES1 100620Z 28008KT 01/M02 A3036 RMK A01 T00131020  RH  079%=      5-min Rain = 0
KES1 100621Z 28007KT 01/M02 A3036 RMK A01 T00131020  RH  079%=      5-min Rain = 0
KES1 100622Z 28007KT 01/M02 A3035 RMK A01 T00131020  RH  079%=      5-min Rain = 0
KES1 100623Z 28007KT 01/M02 A3035 RMK A01 T00131019  RH  079%=      5-min Rain = 0
KES1 100624Z 29006KT 01/M02 A3035 RMK A01 T00131020  RH  079%=      5-min Rain = 0
KES1 100625Z 29008KT 01/M02 A3035 RMK A01 T00121021  RH  079%=      5-min Rain = 0
KES1 100626Z 29008KT 01/M02 A3035 RMK A01 T00121020  RH  079%=      5-min Rain = 0
KES1 100627Z 29007KT 01/M02 A3035 RMK A01 T00111021  RH  079%=      5-min Rain = 0
KES1 100628Z 29007KT 01/M02 A3035 RMK A01 T00111020  RH  079%=      5-min Rain = 0
KES1 100629Z 29008KT 01/M02 A3035 RMK A01 T00111021  RH  079%=      5-min Rain = 0
KES1 100630Z 29008KT 01/M02 A3035 RMK A01 T00101021  RH  080%=      5-min Rain = 0
KES1 100631Z 29008KT 01/M02 A3035 RMK A01 T00101021  RH  080%=      5-min Rain = 0
KES1 100632Z 29008KT 01/M02 A3035 RMK A01 T00101021  RH  080%=      5-min Rain = 0
KES1 100633Z 28009KT 01/M02 A3035 RMK A01 T00101021  RH  080%=      5-min Rain = 0
KES1 100634Z 28008KT 01/M02 A3035 RMK A01 T00111021  RH  080%=      5-min Rain = 0
KES1 100635Z 28008KT 01/M02 A3035 RMK A01 T00101021  RH  079%=      5-min Rain = 0
KES1 100636Z 28007KT 01/M02 A3035 RMK A01 T00101022  RH  079%=      5-min Rain = 0
KES1 100637Z 28007KT 01/M02 A3035 RMK A01 T00101021  RH  079%=      5-min Rain = 0
KES1 100638Z 28008KT 01/M02 A3035 RMK A01 T00101022  RH  079%=      5-min Rain = 0
KES1 100639Z 28007KT 01/M02 A3035 RMK A01 T00101022  RH  079%=      5-min Rain = 0
KES1 100640Z 28007KT 01/M02 A3035 RMK A01 T00101022  RH  079%=      5-min Rain = 0
KES1 100641Z 28008KT 01/M02 A3035 RMK A01 T00101022  RH  079%=      5-min Rain = 0
KES1 100642Z 28008KT 01/M02 A3035 RMK A01 T00111022  RH  079%=      5-min Rain = 0
KES1 100643Z 27008KT 01/M02 A3035 RMK A01 T00111023  RH  078%=      5-min Rain = 0
KES1 100644Z 27008KT 01/M02 A3035 RMK A01 T00111023  RH  078%=      5-min Rain = 0
KES1 100645Z 27008KT 01/M02 A3035 RMK A01 T00111023  RH  078%=      5-min Rain = 0
KES1 100646Z 27007KT 01/M02 A3035 RMK A01 T00111023  RH  078%=      5-min Rain = 0
KES1 100647Z 28007KT 01/M02 A3035 RMK A01 T00111023  RH  078%=      5-min Rain = 0
KES1 100648Z 28008KT 01/M02 A3035 RMK A01 T00111024  RH  078%=      5-min Rain = 0
KES1 100649Z 28008KT 01/M02 A3035 RMK A01 T00111023  RH  078%=      5-min Rain = 0
KES1 100650Z 27007KT 01/M02 A3035 RMK A01 T00111024  RH  078%=      5-min Rain = 0
KES1 100651Z 27007KT 01/M02 A3035 RMK A01 T00111024  RH  078%=      5-min Rain = 0
KES1 100652Z 27006KT 01/M02 A3035 RMK A01 T00101024  RH  078%=      5-min Rain = 0
KES1 100653Z 27007KT 01/M03 A3035 RMK A01 T00101025  RH  078%=      5-min Rain = 0
KES1 100654Z 27007KT 01/M03 A3035 RMK A01 T00091025  RH  078%=      5-min Rain = 0
KES1 100655Z 27008KT 01/M02 A3035 RMK A01 T00091024  RH  078%=      5-min Rain = 0
KES1 100656Z 27008KT 01/M03 A3035 RMK A01 T00091025  RH  078%=      5-min Rain = 0
KES1 100657Z 27008KT 01/M03 A3035 RMK A01 T00091025  RH  078%=      5-min Rain = 0
KES1 100658Z 26008KT 01/M03 A3035 RMK A01 T00071025  RH  079%=      5-min Rain = 0
KES1 100659Z 26008KT 01/M03 A3035 RMK A01 T00071025  RH  079%=      5-min Rain = 0
KES1 100700Z 26007KT 01/M03 A3034 RMK A01 T00071025  RH  079%=      5-min Rain = 0
KES1 100701Z 26007KT 01/M03 A3034 RMK A01 T00071025  RH  079%=      5-min Rain = 0
KES1 100702Z 26006KT 01/M03 A3034 RMK A01 T00061025  RH  079%=      5-min Rain = 0
KES1 100703Z 26008KT 01/M03 A3034 RMK A01 T00061025  RH  080%=      5-min Rain = 0
KES1 100704Z 26007KT 01/M03 A3034 RMK A01 T00061025  RH  080%=      5-min Rain = 0
KES1 100705Z 26007KT 01/M03 A3034 RMK A01 T00071025  RH  079%=      5-min Rain = 0
KES1 100706Z 26007KT 01/M03 A3034 RMK A01 T00081025  RH  079%=      5-min Rain = 0
KES1 100707Z 26009KT 01/M03 A3034 RMK A01 T00071025  RH  079%=      5-min Rain = 0
KES1 100708Z 26008KT 01/M02 A3034 RMK A01 T00081024  RH  079%=      5-min Rain = 0
KES1 100709Z 26008KT 01/M02 A3034 RMK A01 T00091024  RH  078%=      5-min Rain = 0
KES1 100710Z 26008KT 01/M02 A3034 RMK A01 T00091024  RH  078%=      5-min Rain = 0
KES1 100711Z 26008KT 01/M02 A3034 RMK A01 T00091024  RH  078%=      5-min Rain = 0
KES1 100712Z 25008KT 01/M02 A3034 RMK A01 T00091024  RH  079%=      5-min Rain = 0
KES1 100713Z 26008KT 01/M02 A3034 RMK A01 T00091024  RH  079%=      5-min Rain = 0
KES1 100714Z 26009KT 01/M02 A3034 RMK A01 T00091024  RH  079%=      5-min Rain = 0
KES1 100715Z 26009KT 01/M02 A3033 RMK A01 T00091024  RH  079%=      5-min Rain = 0
KES1 100716Z 26008KT 01/M02 A3033 RMK A01 T00091024  RH  079%=      5-min Rain = 0
KES1 100717Z 26008KT 01/M02 A3033 RMK A01 T00101023  RH  079%=      5-min Rain = 0
KES1 100718Z 26007KT 01/M02 A3033 RMK A01 T00101023  RH  079%=      5-min Rain = 0
KES1 100719Z 25008KT 01/M02 A3033 RMK A01 T00101023  RH  078%=      5-min Rain = 0
KES1 100720Z 25008KT 01/M02 A3033 RMK A01 T00111023  RH  079%=      5-min Rain = 0
KES1 100721Z 25006KT 01/M02 A3033 RMK A01 T00111023  RH  078%=      5-min Rain = 0
KES1 100722Z 25007KT 01/M02 A3033 RMK A01 T00111023  RH  078%=      5-min Rain = 0
KES1 100723Z 25008KT 01/M02 A3033 RMK A01 T00101022  RH  079%=      5-min Rain = 0
KES1 100724Z 25006KT 01/M02 A3033 RMK A01 T00101022  RH  079%=      5-min Rain = 0
KES1 100725Z 25008KT 01/M02 A3033 RMK A01 T00101022  RH  079%=      5-min Rain = 0
KES1 100726Z 25008KT 01/M02 A3033 RMK A01 T00091022  RH  080%=      5-min Rain = 0
KES1 100727Z 25008KT 01/M02 A3033 RMK A01 T00101022  RH  080%=      5-min Rain = 0
KES1 100728Z 25007KT 01/M02 A3033 RMK A01 T00101022  RH  080%=      5-min Rain = 0
KES1 100729Z 25007KT 01/M02 A3033 RMK A01 T00101022  RH  079%=      5-min Rain = 0
KES1 100730Z 24006KT 01/M02 A3033 RMK A01 T00101022  RH  079%=      5-min Rain = 0
KES1 100731Z 24006KT 01/M02 A3033 RMK A01 T00101022  RH  079%=      5-min Rain = 0
KES1 100732Z 23007KT 01/M02 A3033 RMK A01 T00101022  RH  079%=      5-min Rain = 0
KES1 100733Z 23007KT 01/M02 A3033 RMK A01 T00101022  RH  079%=      5-min Rain = 0
KES1 100734Z 24007KT 01/M02 A3033 RMK A01 T00101022  RH  079%=      5-min Rain = 0
KES1 100735Z 24006KT 01/M02 A3033 RMK A01 T00101023  RH  079%=      5-min Rain = 0
KES1 100736Z 25008KT 01/M02 A3033 RMK A01 T00101023  RH  078%=      5-min Rain = 0
KES1 100737Z 25007KT 01/M02 A3033 RMK A01 T00111023  RH  078%=      5-min Rain = 0
KES1 100738Z 25007KT 01/M02 A3033 RMK A01 T00111023  RH  078%=      5-min Rain = 0
KES1 100739Z 25008KT 01/M02 A3032 RMK A01 T00111023  RH  078%=      5-min Rain = 0
KES1 100740Z 25007KT 01/M02 A3032 RMK A01 T00111023  RH  078%=      5-min Rain = 0
KES1 100741Z 25007KT 01/M02 A3032 RMK A01 T00101023  RH  078%=      5-min Rain = 0
KES1 100742Z 25006KT 01/M02 A3032 RMK A01 T00101023  RH  078%=      5-min Rain = 0
KES1 100743Z 26006KT 01/M02 A3032 RMK A01 T00091024  RH  079%=      5-min Rain = 0
KES1 100744Z 26007KT 01/M02 A3032 RMK A01 T00091024  RH  079%=      5-min Rain = 0
KES1 100745Z 26006KT 01/M02 A3032 RMK A01 T00081024  RH  079%=      5-min Rain = 0
KES1 100746Z 26005KT 01/M02 A3032 RMK A01 T00081024  RH  079%=      5-min Rain = 0
KES1 100747Z 26006KT 01/M03 A3032 RMK A01 T00071025  RH  079%=      5-min Rain = 0
KES1 100748Z 26005KT 01/M03 A3032 RMK A01 T00071025  RH  079%=      5-min Rain = 0
KES1 100749Z 27005KT 01/M03 A3032 RMK A01 T00071025  RH  080%=      5-min Rain = 0
KES1 100750Z 27005KT 01/M03 A3032 RMK A01 T00061025  RH  080%=      5-min Rain = 0
KES1 100751Z 28004KT 01/M03 A3032 RMK A01 T00051026  RH  080%=      5-min Rain = 0
KES1 100752Z 28004KT 01/M03 A3032 RMK A01 T00051025  RH  080%=      5-min Rain = 0
KES1 100753Z 28004KT 01/M03 A3032 RMK A01 T00061025  RH  080%=      5-min Rain = 0
KES1 100754Z 29004KT 01/M03 A3032 RMK A01 T00051025  RH  080%=      5-min Rain = 0
KES1 100755Z 29005KT 01/M03 A3032 RMK A01 T00051025  RH  080%=      5-min Rain = 0
KES1 100756Z 29005KT 01/M02 A3032 RMK A01 T00051024  RH  081%=      5-min Rain = 0
KES1 100757Z 29007KT 01/M02 A3032 RMK A01 T00051024  RH  081%=      5-min Rain = 0
KES1 100758Z 28007KT 01/M02 A3032 RMK A01 T00051024  RH  081%=      5-min Rain = 0
KES1 100759Z 28007KT 01/M02 A3032 RMK A01 T00051024  RH  081%=      5-min Rain = 0
KES1 100800Z 29007KT 01/M02 A3032 RMK A01 T00051024  RH  081%=      5-min Rain = 0
KES1 100801Z 28007KT 01/M03 A3032 RMK A01 T00051025  RH  080%=      5-min Rain = 0
KES1 100802Z 29007KT 01/M03 A3032 RMK A01 T00051025  RH  080%=      5-min Rain = 0
KES1 100803Z 28007KT 00/M03 A3032 RMK A01 T00041026  RH  081%=      5-min Rain = 0
KES1 100804Z 28007KT 00/M03 A3032 RMK A01 T00031026  RH  081%=      5-min Rain = 0
KES1 100805Z 28008KT 00/M03 A3032 RMK A01 T00031025  RH  081%=      5-min Rain = 0
KES1 100806Z 28007KT 00/M03 A3032 RMK A01 T00041025  RH  081%=      5-min Rain = 0
KES1 100807Z 27007KT 00/M03 A3032 RMK A01 T00041025  RH  081%=      5-min Rain = 0
KES1 100808Z 27006KT 00/M03 A3032 RMK A01 T00041025  RH  081%=      5-min Rain = 0
KES1 100809Z 27006KT 00/M03 A3032 RMK A01 T00031026  RH  081%=      5-min Rain = 0
KES1 100810Z 27005KT 00/M03 A3032 RMK A01 T00031025  RH  081%=      5-min Rain = 0
KES1 100811Z 26005KT 00/M03 A3032 RMK A01 T00031025  RH  082%=      5-min Rain = 0
KES1 100812Z 27004KT 00/M03 A3032 RMK A01 T00031025  RH  081%=      5-min Rain = 0
KES1 100813Z 28004KT 00/M03 A3032 RMK A01 T00031025  RH  081%=      5-min Rain = 0
KES1 100814Z 29005KT 00/M03 A3032 RMK A01 T00021026  RH  081%=      5-min Rain = 0
KES1 100815Z 29005KT 00/M03 A3032 RMK A01 T00021026  RH  082%=      5-min Rain = 0
KES1 100816Z 29005KT 00/M03 A3032 RMK A01 T00021025  RH  082%=      5-min Rain = 0
KES1 100817Z 29005KT 00/M03 A3032 RMK A01 T00021025  RH  082%=      5-min Rain = 0
KES1 100818Z 29005KT 00/M03 A3032 RMK A01 T00021025  RH  082%=      5-min Rain = 0
KES1 100819Z 29005KT 00/M03 A3032 RMK A01 T00021025  RH  082%=      5-min Rain = 0
KES1 100820Z 29005KT 00/M03 A3032 RMK A01 T00021025  RH  082%=      5-min Rain = 0
KES1 100821Z 28005KT 00/M03 A3032 RMK A01 T00031025  RH  082%=      5-min Rain = 0
KES1 100822Z 28004KT 00/M03 A3032 RMK A01 T00031025  RH  081%=      5-min Rain = 0
KES1 100823Z 28004KT 00/M03 A3032 RMK A01 T00031026  RH  081%=      5-min Rain = 0
KES1 100824Z 27004KT 00/M03 A3032 RMK A01 T00021026  RH  081%=      5-min Rain = 0
KES1 100825Z 26003KT 00/M03 A3032 RMK A01 T00011027  RH  081%=      5-min Rain = 0
KES1 100826Z 27003KT 00/03 A3032 RMK A01 T00000-28  RH  081%=      5-min Rain = 0
KES1 100827Z 28003KT M00/M03 A3032 RMK A01 T10011029  RH  081%=      5-min Rain = 0
KES1 100828Z 28004KT M00/M03 A3032 RMK A01 T10021029  RH  082%=      5-min Rain = 0
KES1 100829Z 28004KT M00/M03 A3032 RMK A01 T10011026  RH  083%=      5-min Rain = 0
KES1 100830Z 27004KT 00/03 A3032 RMK A01 T00000-26  RH  083%=      5-min Rain = 0
KES1 100831Z 27004KT 00/M03 A3032 RMK A01 T00011026  RH  082%=      5-min Rain = 0
KES1 100832Z 27003KT 00/M03 A3032 RMK A01 T00011027  RH  081%=      5-min Rain = 0
KES1 100833Z 27005KT 00/M03 A3032 RMK A01 T00011027  RH  081%=      5-min Rain = 0
KES1 100834Z 27004KT 00/M03 A3032 RMK A01 T00011027  RH  082%=      5-min Rain = 0
KES1 100835Z 28005KT 00/M03 A3033 RMK A01 T00011027  RH  082%=      5-min Rain = 0
KES1 100836Z 27004KT 00/M03 A3033 RMK A01 T00021026  RH  082%=      5-min Rain = 0
KES1 100837Z 26004KT 00/M03 A3033 RMK A01 T00021026  RH  081%=      5-min Rain = 0
KES1 100838Z 25005KT 00/M03 A3032 RMK A01 T00011027  RH  081%=      5-min Rain = 0
KES1 100839Z 25006KT 00/M03 A3032 RMK A01 T00011027  RH  081%=      5-min Rain = 0
KES1 100840Z 27006KT 00/03 A3033 RMK A01 T00000-28  RH  081%=      5-min Rain = 0
KES1 100841Z 26007KT 00/M03 A3033 RMK A01 T00011027  RH  082%=      5-min Rain = 0
KES1 100842Z 26006KT 00/M03 A3033 RMK A01 T00021025  RH  082%=      5-min Rain = 0
KES1 100843Z 26005KT 00/M03 A3033 RMK A01 T00031026  RH  081%=      5-min Rain = 0
KES1 100844Z 26005KT 00/M03 A3033 RMK A01 T00041026  RH  080%=      5-min Rain = 0
KES1 100845Z 26005KT 00/M03 A3033 RMK A01 T00041026  RH  080%=      5-min Rain = 0
KES1 100846Z 25006KT 00/M03 A3033 RMK A01 T00041027  RH  080%=      5-min Rain = 0
KES1 100847Z 25006KT 00/M03 A3033 RMK A01 T00031027  RH  080%=      5-min Rain = 0
KES1 100848Z 26007KT 00/M03 A3033 RMK A01 T00031027  RH  081%=      5-min Rain = 0
KES1 100849Z 26005KT 00/M03 A3033 RMK A01 T00031026  RH  081%=      5-min Rain = 0
KES1 100850Z 26006KT 00/M03 A3033 RMK A01 T00031026  RH  081%=      5-min Rain = 0
KES1 100851Z 27006KT 00/M03 A3033 RMK A01 T00031027  RH  081%=      5-min Rain = 0
KES1 100852Z 26006KT 00/M03 A3033 RMK A01 T00031026  RH  081%=      5-min Rain = 0
KES1 100853Z 27007KT 00/M03 A3033 RMK A01 T00031026  RH  081%=      5-min Rain = 0
KES1 100854Z 27007KT 00/M03 A3033 RMK A01 T00031026  RH  081%=      5-min Rain = 0
KES1 100855Z 27007KT 00/M03 A3033 RMK A01 T00031026  RH  081%=      5-min Rain = 0
KES1 100856Z 26007KT 00/M03 A3033 RMK A01 T00031026  RH  081%=      5-min Rain = 0
KES1 100857Z 26007KT 00/M03 A3033 RMK A01 T00041026  RH  080%=      5-min Rain = 0
KES1 100858Z 27007KT 00/M03 A3033 RMK A01 T00041026  RH  080%=      5-min Rain = 0
KES1 100859Z 26006KT 00/M03 A3033 RMK A01 T00041026  RH  080%=      5-min Rain = 0
KES1 100900Z 26005KT 00/M03 A3033 RMK A01 T00041026  RH  080%=      5-min Rain = 0
KES1 100901Z 26007KT 00/M03 A3033 RMK A01 T00041027  RH  080%=      5-min Rain = 0
KES1 100902Z 26006KT 00/M03 A3033 RMK A01 T00041026  RH  080%=      5-min Rain = 0
KES1 100903Z 27006KT 00/M03 A3033 RMK A01 T00041026  RH  080%=      5-min Rain = 0
KES1 100904Z 27006KT 00/M03 A3033 RMK A01 T00041026  RH  080%=      5-min Rain = 0
KES1 100905Z 27008KT 00/M03 A3033 RMK A01 T00041026  RH  081%=      5-min Rain = 0
KES1 100906Z 27006KT 00/M03 A3033 RMK A01 T00031026  RH  081%=      5-min Rain = 0
KES1 100907Z 27008KT 00/M03 A3032 RMK A01 T00031026  RH  081%=      5-min Rain = 0
KES1 100908Z 26007KT 00/M03 A3032 RMK A01 T00041026  RH  081%=      5-min Rain = 0
KES1 100909Z 27007KT 00/M03 A3032 RMK A01 T00041026  RH  080%=      5-min Rain = 0
KES1 100910Z 27008KT 00/M03 A3032 RMK A01 T00041026  RH  080%=      5-min Rain = 0
KES1 100911Z 27007KT 00/M03 A3032 RMK A01 T00041026  RH  080%=      5-min Rain = 0
KES1 100912Z 26008KT 00/M03 A3032 RMK A01 T00041026  RH  080%=      5-min Rain = 0
KES1 100913Z 27007KT 00/M03 A3032 RMK A01 T00041026  RH  080%=      5-min Rain = 0
KES1 100914Z 26008KT 00/M03 A3032 RMK A01 T00031027  RH  080%=      5-min Rain = 0
KES1 100915Z 26007KT 00/M03 A3032 RMK A01 T00031027  RH  080%=      5-min Rain = 0
KES1 100916Z 26007KT 00/M03 A3032 RMK A01 T00031027  RH  080%=      5-min Rain = 0
KES1 100917Z 25007KT 00/M03 A3032 RMK A01 T00031027  RH  080%=      5-min Rain = 0
KES1 100918Z 26007KT 00/M03 A3032 RMK A01 T00031027  RH  080%=      5-min Rain = 0
KES1 100919Z 25007KT 00/M03 A3032 RMK A01 T00031028  RH  080%=      5-min Rain = 0
KES1 100920Z 26007KT 00/M03 A3032 RMK A01 T00031028  RH  080%=      5-min Rain = 0
KES1 100921Z 26007KT 00/M03 A3032 RMK A01 T00041028  RH  080%=      5-min Rain = 0
KES1 100922Z 26007KT 00/M03 A3032 RMK A01 T00041028  RH  079%=      5-min Rain = 0
KES1 100923Z 26006KT 00/M03 A3032 RMK A01 T00041028  RH  079%=      5-min Rain = 0
KES1 100924Z 27006KT 01/M03 A3032 RMK A01 T00051028  RH  079%=      5-min Rain = 0
KES1 100925Z 27006KT 00/M03 A3032 RMK A01 T00041028  RH  079%=      5-min Rain = 0
KES1 100926Z 27005KT 00/M03 A3032 RMK A01 T00041028  RH  079%=      5-min Rain = 0
KES1 100927Z 26005KT 00/M03 A3032 RMK A01 T00041029  RH  079%=      5-min Rain = 0
KES1 100928Z 26005KT 00/M03 A3032 RMK A01 T00041029  RH  079%=      5-min Rain = 0
KES1 100929Z 26005KT 00/M03 A3032 RMK A01 T00031029  RH  079%=      5-min Rain = 0
KES1 100930Z 26005KT 00/M03 A3032 RMK A01 T00021029  RH  079%=      5-min Rain = 0
KES1 100931Z 26005KT 00/M03 A3032 RMK A01 T00021029  RH  079%=      5-min Rain = 0
KES1 100932Z 25005KT 00/M03 A3032 RMK A01 T00031029  RH  079%=      5-min Rain = 0
KES1 100933Z 25006KT 00/M03 A3033 RMK A01 T00031029  RH  079%=      5-min Rain = 0
KES1 100934Z 25006KT 00/M03 A3033 RMK A01 T00031029  RH  079%=      5-min Rain = 0
KES1 100935Z 25006KT 00/M03 A3033 RMK A01 T00031030  RH  079%=      5-min Rain = 0
KES1 100936Z 25006KT 00/M03 A3033 RMK A01 T00031030  RH  079%=      5-min Rain = 0
KES1 100937Z 25006KT 00/M03 A3033 RMK A01 T00021030  RH  079%=      5-min Rain = 0
KES1 100938Z 25006KT 00/M03 A3033 RMK A01 T00031030  RH  079%=      5-min Rain = 0
KES1 100939Z 25006KT 00/M03 A3033 RMK A01 T00031030  RH  079%=      5-min Rain = 0
KES1 100940Z 25006KT 00/M03 A3033 RMK A01 T00021030  RH  079%=      5-min Rain = 0
KES1 100941Z 25006KT 00/M03 A3033 RMK A01 T00021030  RH  079%=      5-min Rain = 0
KES1 100942Z 25005KT 00/M03 A3033 RMK A01 T00021030  RH  079%=      5-min Rain = 0
KES1 100943Z 26006KT 00/M03 A3033 RMK A01 T00011030  RH  079%=      5-min Rain = 0
KES1 100944Z 25005KT 00/M03 A3033 RMK A01 T00011031  RH  080%=      5-min Rain = 0
KES1 100945Z 25005KT 00/03 A3032 RMK A01 T00000-31  RH  080%=      5-min Rain = 0
KES1 100946Z 25005KT 00/03 A3032 RMK A01 T00000-31  RH  080%=      5-min Rain = 0
KES1 100947Z 25006KT 00/03 A3032 RMK A01 T00-00-31  RH  080%=      5-min Rain = 0
KES1 100948Z 25005KT 00/03 A3032 RMK A01 T00-00-31  RH  080%=      5-min Rain = 0
KES1 100949Z 25005KT 00/03 A3032 RMK A01 T00-00-31  RH  080%=      5-min Rain = 0
KES1 100950Z 26006KT 00/03 A3032 RMK A01 T00-00-31  RH  080%=      5-min Rain = 0
KES1 100951Z 25005KT 00/03 A3032 RMK A01 T00-00-31  RH  080%=      5-min Rain = 0
KES1 100952Z 26005KT 00/03 A3032 RMK A01 T00-00-31  RH  080%=      5-min Rain = 0
KES1 100953Z 26005KT 00/03 A3032 RMK A01 T00-00-31  RH  080%=      5-min Rain = 0
KES1 100954Z 26005KT M00/M03 A3032 RMK A01 T10011031  RH  080%=      5-min Rain = 0
KES1 100955Z 25004KT 00/03 A3032 RMK A01 T00-00-31  RH  080%=      5-min Rain = 0
KES1 100956Z 25004KT M00/M03 A3032 RMK A01 T10011032  RH  080%=      5-min Rain = 0
KES1 100957Z 25004KT M00/M03 A3032 RMK A01 T10011032  RH  079%=      5-min Rain = 0
KES1 100958Z 25004KT M00/M03 A3032 RMK A01 T10011033  RH  079%=      5-min Rain = 0
KES1 100959Z 26005KT M00/M03 A3032 RMK A01 T10011034  RH  079%=      5-min Rain = 0
KES1 101000Z 26005KT M00/M03 A3032 RMK A01 T10011034  RH  078%=      5-min Rain = 0
KES1 101001Z 25005KT 00/03 A3032 RMK A01 T00-00-34  RH  078%=      5-min Rain = 0
KES1 101002Z 25005KT 00/03 A3032 RMK A01 T00-00-34  RH  078%=      5-min Rain = 0
KES1 101003Z 25004KT 00/04 A3032 RMK A01 T00000-35  RH  077%=      5-min Rain = 0
KES1 101004Z 24004KT 00/04 A3032 RMK A01 T00000-35  RH  077%=      5-min Rain = 0
KES1 101005Z 24004KT 00/04 A3032 RMK A01 T00-00-35  RH  078%=      5-min Rain = 0
KES1 101006Z 25004KT M00/M04 A3032 RMK A01 T10011035  RH  078%=      5-min Rain = 0
KES1 101007Z 25004KT M00/M04 A3032 RMK A01 T10011035  RH  078%=      5-min Rain = 0
KES1 101008Z 26004KT M00/M04 A3032 RMK A01 T10011035  RH  078%=      5-min Rain = 0
KES1 101009Z 27004KT M00/M04 A3032 RMK A01 T10011035  RH  078%=      5-min Rain = 0
KES1 101010Z 27005KT M00/M04 A3032 RMK A01 T10011035  RH  078%=      5-min Rain = 0
KES1 101011Z 27005KT M00/M04 A3032 RMK A01 T10011036  RH  077%=      5-min Rain = 0
KES1 101012Z 27005KT 00/04 A3032 RMK A01 T00000-35  RH  077%=      5-min Rain = 0
KES1 101013Z 27004KT 00/04 A3032 RMK A01 T00000-36  RH  077%=      5-min Rain = 0
KES1 101014Z 26005KT 00/04 A3032 RMK A01 T00000-37  RH  076%=      5-min Rain = 0
KES1 101015Z 27004KT 00/04 A3032 RMK A01 T00-00-37  RH  076%=      5-min Rain = 0
KES1 101016Z 27004KT M00/M04 A3032 RMK A01 T10011037  RH  077%=      5-min Rain = 0
KES1 101017Z 28003KT M00/M04 A3032 RMK A01 T10011037  RH  077%=      5-min Rain = 0
KES1 101018Z 27003KT M00/M04 A3032 RMK A01 T10011036  RH  077%=      5-min Rain = 0
KES1 101019Z 27005KT M00/M04 A3032 RMK A01 T10011037  RH  077%=      5-min Rain = 0
KES1 101020Z 27004KT 00/04 A3032 RMK A01 T00-00-37  RH  076%=      5-min Rain = 0
KES1 101021Z 26004KT 00/M04 A3032 RMK A01 T00011036  RH  076%=      5-min Rain = 0
KES1 101022Z 26004KT 00/M04 A3032 RMK A01 T00011037  RH  076%=      5-min Rain = 0
KES1 101023Z 26005KT 00/M04 A3032 RMK A01 T00021037  RH  075%=      5-min Rain = 0
KES1 101024Z 27005KT 00/M04 A3032 RMK A01 T00031037  RH  075%=      5-min Rain = 0
KES1 101025Z 27005KT 00/M04 A3032 RMK A01 T00031037  RH  074%=      5-min Rain = 0
KES1 101026Z 26004KT 00/M04 A3032 RMK A01 T00041037  RH  074%=      5-min Rain = 0
KES1 101027Z 26003KT 01/M04 A3032 RMK A01 T00051037  RH  074%=      5-min Rain = 0
KES1 101028Z 26004KT 01/M04 A3032 RMK A01 T00051037  RH  074%=      5-min Rain = 0
KES1 101029Z 25003KT 00/M04 A3032 RMK A01 T00041038  RH  074%=      5-min Rain = 0
KES1 101030Z 25004KT 00/M04 A3032 RMK A01 T00031038  RH  074%=      5-min Rain = 0
KES1 101031Z 24004KT 00/M04 A3032 RMK A01 T00031038  RH  074%=      5-min Rain = 0
KES1 101032Z 24003KT 00/M04 A3032 RMK A01 T00021038  RH  074%=      5-min Rain = 0
KES1 101033Z 25004KT 00/M04 A3032 RMK A01 T00021038  RH  075%=      5-min Rain = 0
KES1 101034Z 25005KT 00/M04 A3032 RMK A01 T00011038  RH  075%=      5-min Rain = 0
KES1 101035Z 26006KT 00/M04 A3032 RMK A01 T00011039  RH  075%=      5-min Rain = 0
KES1 101036Z 25006KT 00/04 A3032 RMK A01 T00-00-40  RH  075%=      5-min Rain = 0
KES1 101037Z 25005KT M00/M04 A3032 RMK A01 T10011040  RH  075%=      5-min Rain = 0
KES1 101038Z 25006KT M00/M04 A3032 RMK A01 T10021041  RH  075%=      5-min Rain = 0
KES1 101039Z 25006KT M00/M04 A3032 RMK A01 T10011040  RH  075%=      5-min Rain = 0
KES1 101040Z 25006KT 00/04 A3032 RMK A01 T00-00-40  RH  075%=      5-min Rain = 0
KES1 101041Z 25007KT 00/M04 A3031 RMK A01 T00011040  RH  074%=      5-min Rain = 0
KES1 101042Z 25006KT 00/M04 A3031 RMK A01 T00021040  RH  073%=      5-min Rain = 0
KES1 101043Z 25006KT 00/M04 A3031 RMK A01 T00021040  RH  073%=      5-min Rain = 0
KES1 101044Z 25006KT 00/M04 A3031 RMK A01 T00011041  RH  073%=      5-min Rain = 0
KES1 101045Z 25007KT 00/M04 A3031 RMK A01 T00011041  RH  073%=      5-min Rain = 0
KES1 101046Z 25006KT 00/M04 A3031 RMK A01 T00021040  RH  073%=      5-min Rain = 0
KES1 101047Z 26005KT 00/M04 A3031 RMK A01 T00021040  RH  073%=      5-min Rain = 0
KES1 101048Z 25005KT 00/M04 A3031 RMK A01 T00021040  RH  073%=      5-min Rain = 0
KES1 101049Z 25005KT 00/M04 A3031 RMK A01 T00031040  RH  073%=      5-min Rain = 0
KES1 101050Z 24004KT 00/M04 A3031 RMK A01 T00031040  RH  073%=      5-min Rain = 0
KES1 101051Z 24004KT 00/M04 A3031 RMK A01 T00031040  RH  073%=      5-min Rain = 0
KES1 101052Z 24004KT 00/M04 A3031 RMK A01 T00021041  RH  073%=      5-min Rain = 0
KES1 101053Z 25004KT 00/M04 A3031 RMK A01 T00021041  RH  073%=      5-min Rain = 0
KES1 101054Z 24004KT 00/M04 A3031 RMK A01 T00021041  RH  073%=      5-min Rain = 0
KES1 101055Z 24004KT 00/M04 A3031 RMK A01 T00011042  RH  073%=      5-min Rain = 0
KES1 101056Z 24004KT 00/M04 A3031 RMK A01 T00011041  RH  073%=      5-min Rain = 0
KES1 101057Z 23004KT 00/M04 A3031 RMK A01 T00011041  RH  073%=      5-min Rain = 0
KES1 101058Z 23003KT 00/M04 A3031 RMK A01 T00011041  RH  073%=      5-min Rain = 0
KES1 101059Z 23004KT 00/M04 A3031 RMK A01 T00011041  RH  073%=      5-min Rain = 0
KES1 101100Z 22003KT 00/M04 A3031 RMK A01 T00021041  RH  073%=      5-min Rain = 0
KES1 101101Z 24004KT 00/M04 A3031 RMK A01 T00041041  RH  072%=      5-min Rain = 0
KES1 101102Z 24005KT 01/M04 A3031 RMK A01 T00051041  RH  071%=      5-min Rain = 0
KES1 101103Z 23003KT 01/M04 A3031 RMK A01 T00071041  RH  070%=      5-min Rain = 0
KES1 101104Z 24004KT 01/M04 A3031 RMK A01 T00081042  RH  069%=      5-min Rain = 0
KES1 101105Z 23003KT 01/M04 A3031 RMK A01 T00081042  RH  069%=      5-min Rain = 0
KES1 101106Z 22003KT 01/M04 A3031 RMK A01 T00081042  RH  070%=      5-min Rain = 0
KES1 101107Z 23003KT 01/M04 A3031 RMK A01 T00071041  RH  070%=      5-min Rain = 0
KES1 101108Z 23003KT 01/M04 A3031 RMK A01 T00071041  RH  070%=      5-min Rain = 0
KES1 101109Z 23004KT 01/M04 A3031 RMK A01 T00071041  RH  070%=      5-min Rain = 0
KES1 101110Z 24003KT 01/M04 A3031 RMK A01 T00071041  RH  070%=      5-min Rain = 0
KES1 101111Z 23003KT 01/M04 A3031 RMK A01 T00061042  RH  070%=      5-min Rain = 0
KES1 101112Z 24004KT 01/M04 A3031 RMK A01 T00061042  RH  070%=      5-min Rain = 0
KES1 101113Z 24004KT 01/M04 A3031 RMK A01 T00051043  RH  071%=      5-min Rain = 0
KES1 101114Z 24002KT 00/M04 A3031 RMK A01 T00041043  RH  071%=      5-min Rain = 0
KES1 101115Z 24003KT 00/M04 A3031 RMK A01 T00041043  RH  071%=      5-min Rain = 0
KES1 101116Z 24003KT 00/M04 A3031 RMK A01 T00041043  RH  071%=      5-min Rain = 0
KES1 101117Z 24003KT 00/M04 A3031 RMK A01 T00031043  RH  071%=      5-min Rain = 0
KES1 101118Z 25004KT 00/M04 A3031 RMK A01 T00031044  RH  071%=      5-min Rain = 0
KES1 101119Z 25003KT 00/M04 A3031 RMK A01 T00021044  RH  071%=      5-min Rain = 0
KES1 101120Z 25003KT 00/M04 A3031 RMK A01 T00021044  RH  071%=      5-min Rain = 0
KES1 101121Z 25004KT 00/M05 A3031 RMK A01 T00021045  RH  071%=      5-min Rain = 0
KES1 101122Z 25004KT 00/M05 A3031 RMK A01 T00021045  RH  071%=      5-min Rain = 0
KES1 101123Z 26005KT 00/M05 A3031 RMK A01 T00021045  RH  071%=      5-min Rain = 0
KES1 101124Z 25005KT 00/M05 A3031 RMK A01 T00021045  RH  070%=      5-min Rain = 0
KES1 101125Z 25004KT 00/M04 A3031 RMK A01 T00031044  RH  070%=      5-min Rain = 0
KES1 101126Z 25004KT 00/M05 A3031 RMK A01 T00031045  RH  070%=      5-min Rain = 0
KES1 101127Z 25004KT 00/M05 A3031 RMK A01 T00031045  RH  070%=      5-min Rain = 0
KES1 101128Z 25003KT 00/M05 A3031 RMK A01 T00031045  RH  070%=      5-min Rain = 0
KES1 101129Z 25004KT 00/M05 A3031 RMK A01 T00031045  RH  070%=      5-min Rain = 0
KES1 101130Z 26004KT 00/M05 A3031 RMK A01 T00041045  RH  069%=      5-min Rain = 0
KES1 101131Z 25004KT 01/M05 A3031 RMK A01 T00051045  RH  069%=      5-min Rain = 0
KES1 101132Z 25003KT 01/M05 A3031 RMK A01 T00061045  RH  069%=      5-min Rain = 0
KES1 101133Z 24004KT 01/M05 A3031 RMK A01 T00071045  RH  068%=      5-min Rain = 0
KES1 101134Z 25004KT 01/M05 A3031 RMK A01 T00071045  RH  068%=      5-min Rain = 0
KES1 101135Z 24003KT 01/M05 A3031 RMK A01 T00071046  RH  068%=      5-min Rain = 0
KES1 101136Z 24003KT 01/M05 A3031 RMK A01 T00071046  RH  068%=      5-min Rain = 0
KES1 101137Z 24004KT 01/M05 A3031 RMK A01 T00071046  RH  068%=      5-min Rain = 0
KES1 101138Z 24004KT 01/M05 A3031 RMK A01 T00071046  RH  068%=      5-min Rain = 0
KES1 101139Z 24005KT 01/M05 A3031 RMK A01 T00071046  RH  068%=      5-min Rain = 0
KES1 101140Z 24004KT 01/M05 A3031 RMK A01 T00061046  RH  068%=      5-min Rain = 0
KES1 101141Z 24004KT 01/M05 A3031 RMK A01 T00061046  RH  068%=      5-min Rain = 0
KES1 101142Z 25005KT 01/M05 A3031 RMK A01 T00071045  RH  068%=      5-min Rain = 0
KES1 101143Z 25005KT 01/M05 A3031 RMK A01 T00071045  RH  068%=      5-min Rain = 0
KES1 101144Z 26006KT 01/M05 A3031 RMK A01 T00061046  RH  068%=      5-min Rain = 0
KES1 101145Z 24005KT 01/M05 A3031 RMK A01 T00061046  RH  068%=      5-min Rain = 0
KES1 101146Z 24005KT 01/M05 A3031 RMK A01 T00061046  RH  068%=      5-min Rain = 0
KES1 101147Z 24006KT 01/M05 A3031 RMK A01 T00061046  RH  068%=      5-min Rain = 0
KES1 101148Z 24005KT 01/M05 A3031 RMK A01 T00061046  RH  068%=      5-min Rain = 0
KES1 101149Z 24006KT 01/M05 A3031 RMK A01 T00051046  RH  069%=      5-min Rain = 0
KES1 101150Z 24006KT 01/M05 A3031 RMK A01 T00051046  RH  069%=      5-min Rain = 0
KES1 101151Z 24006KT 01/M05 A3031 RMK A01 T00051046  RH  069%=      5-min Rain = 0
KES1 101152Z 25006KT 01/M05 A3031 RMK A01 T00061046  RH  068%=      5-min Rain = 0
KES1 101153Z 24006KT 01/M05 A3031 RMK A01 T00061046  RH  068%=      5-min Rain = 0
KES1 101154Z 25007KT 01/M05 A3031 RMK A01 T00061046  RH  068%=      5-min Rain = 0
KES1 101155Z 25006KT 01/M05 A3031 RMK A01 T00071045  RH  068%=      5-min Rain = 0
KES1 101156Z 25007KT 01/M05 A3031 RMK A01 T00071046  RH  068%=      5-min Rain = 0
KES1 101157Z 25006KT 01/M05 A3031 RMK A01 T00071046  RH  068%=      5-min Rain = 0
KES1 101158Z 25006KT 01/M05 A3031 RMK A01 T00071046  RH  068%=      5-min Rain = 0
KES1 101159Z 24006KT 01/M05 A3031 RMK A01 T00071045  RH  068%=      5-min Rain = 0
KES1 101200Z 24007KT 01/M05 A3031 RMK A01 T00061046  RH  068%=      5-min Rain = 0
KES1 101201Z 24007KT 01/M05 A3031 RMK A01 T00061046  RH  068%=      5-min Rain = 0
KES1 101202Z 24007KT 01/M05 A3031 RMK A01 T00061046  RH  068%=      5-min Rain = 0
KES1 101203Z 24007KT 01/M05 A3031 RMK A01 T00061046  RH  068%=      5-min Rain = 0
KES1 101204Z 24008KT 01/M05 A3031 RMK A01 T00061046  RH  068%=      5-min Rain = 0
KES1 101205Z 24008KT 01/M05 A3031 RMK A01 T00061046  RH  068%=      5-min Rain = 0
KES1 101206Z 25007KT 01/M05 A3031 RMK A01 T00061046  RH  068%=      5-min Rain = 0
KES1 101207Z 25006KT 01/M05 A3031 RMK A01 T00061046  RH  068%=      5-min Rain = 0
KES1 101208Z 25006KT 01/M05 A3032 RMK A01 T00051046  RH  068%=      5-min Rain = 0
KES1 101209Z 25007KT 01/M05 A3032 RMK A01 T00051046  RH  069%=      5-min Rain = 0
KES1 101210Z 24006KT 01/M05 A3032 RMK A01 T00051046  RH  068%=      5-min Rain = 0
KES1 101211Z 25006KT 01/M05 A3032 RMK A01 T00051046  RH  069%=      5-min Rain = 0
KES1 101212Z 24007KT 00/M05 A3032 RMK A01 T00041046  RH  069%=      5-min Rain = 0
KES1 101213Z 24006KT 00/M05 A3032 RMK A01 T00041046  RH  069%=      5-min Rain = 0
KES1 101214Z 24006KT 00/M05 A3032 RMK A01 T00041046  RH  069%=      5-min Rain = 0
KES1 101215Z 23006KT 00/M05 A3032 RMK A01 T00041046  RH  069%=      5-min Rain = 0
KES1 101216Z 23005KT 00/M05 A3032 RMK A01 T00031046  RH  069%=      5-min Rain = 0
KES1 101217Z 23005KT 00/M05 A3032 RMK A01 T00021047  RH  069%=      5-min Rain = 0
KES1 101218Z 23006KT 00/M05 A3032 RMK A01 T00021047  RH  070%=      5-min Rain = 0
KES1 101219Z 23006KT 00/M05 A3032 RMK A01 T00021047  RH  070%=      5-min Rain = 0
KES1 101220Z 22005KT 00/M05 A3032 RMK A01 T00011047  RH  070%=      5-min Rain = 0
KES1 101221Z 23005KT 00/M05 A3032 RMK A01 T00011047  RH  070%=      5-min Rain = 0
KES1 101222Z 22005KT 00/05 A3032 RMK A01 T00000-47  RH  070%=      5-min Rain = 0
KES1 101223Z 22004KT 00/05 A3032 RMK A01 T00000-47  RH  071%=      5-min Rain = 0
KES1 101224Z 22005KT 00/05 A3032 RMK A01 T00000-47  RH  071%=      5-min Rain = 0
KES1 101225Z 22006KT 00/05 A3032 RMK A01 T00000-47  RH  071%=      5-min Rain = 0
KES1 101226Z 22005KT 00/M05 A3032 RMK A01 T00011046  RH  071%=      5-min Rain = 0
KES1 101227Z 23005KT 00/M05 A3032 RMK A01 T00011047  RH  070%=      5-min Rain = 0
KES1 101228Z 22005KT 00/M05 A3032 RMK A01 T00011046  RH  070%=      5-min Rain = 0
KES1 101229Z 23006KT 00/M05 A3032 RMK A01 T00021046  RH  070%=      5-min Rain = 0
KES1 101230Z 23005KT 00/M05 A3032 RMK A01 T00021046  RH  070%=      5-min Rain = 0
KES1 101231Z 24005KT 00/M05 A3032 RMK A01 T00021047  RH  070%=      5-min Rain = 0
KES1 101232Z 23004KT 00/M05 A3032 RMK A01 T00021047  RH  069%=      5-min Rain = 0
KES1 101233Z 25004KT 00/M05 A3032 RMK A01 T00021047  RH  069%=      5-min Rain = 0
KES1 101234Z 24004KT 00/M05 A3032 RMK A01 T00031047  RH  069%=      5-min Rain = 0
KES1 101235Z 24004KT 00/M05 A3032 RMK A01 T00021047  RH  069%=      5-min Rain = 0
KES1 101236Z 24004KT 00/M05 A3032 RMK A01 T00021047  RH  070%=      5-min Rain = 0
KES1 101237Z 24004KT 00/M05 A3032 RMK A01 T00021047  RH  070%=      5-min Rain = 0
KES1 101238Z 23004KT 00/M05 A3032 RMK A01 T00011048  RH  070%=      5-min Rain = 0
KES1 101239Z 23004KT 00/05 A3032 RMK A01 T00000-48  RH  070%=      5-min Rain = 0
KES1 101240Z 23004KT 00/05 A3033 RMK A01 T00000-48  RH  070%=      5-min Rain = 0
KES1 101241Z 23004KT 00/M05 A3033 RMK A01 T00011047  RH  070%=      5-min Rain = 0
KES1 101242Z 23003KT 00/05 A3033 RMK A01 T00000-47  RH  070%=      5-min Rain = 0
KES1 101243Z 24004KT 00/05 A3033 RMK A01 T00-00-48  RH  070%=      5-min Rain = 0
KES1 101244Z 24004KT 00/05 A3033 RMK A01 T00-00-48  RH  070%=      5-min Rain = 0
KES1 101245Z 24003KT M00/M05 A3033 RMK A01 T10011049  RH  070%=      5-min Rain = 0
KES1 101246Z 24003KT M00/M05 A3033 RMK A01 T10011048  RH  070%=      5-min Rain = 0
KES1 101247Z 25004KT M00/M05 A3033 RMK A01 T10011049  RH  070%=      5-min Rain = 0
KES1 101248Z 26004KT M00/M05 A3033 RMK A01 T10021049  RH  071%=      5-min Rain = 0
KES1 101249Z 25004KT M00/M05 A3033 RMK A01 T10021049  RH  071%=      5-min Rain = 0
KES1 101250Z 26005KT M00/M05 A3033 RMK A01 T10021049  RH  071%=      5-min Rain = 0
KES1 101251Z 27005KT M00/M05 A3033 RMK A01 T10021049  RH  071%=      5-min Rain = 0
KES1 101252Z 27005KT M00/M05 A3033 RMK A01 T10031049  RH  071%=      5-min Rain = 0
KES1 101253Z 27006KT M00/M05 A3033 RMK A01 T10031049  RH  071%=      5-min Rain = 0
KES1 101254Z 27005KT M00/M05 A3033 RMK A01 T10031049  RH  071%=      5-min Rain = 0
KES1 101255Z 27006KT M00/M05 A3033 RMK A01 T10021049  RH  071%=      5-min Rain = 0
KES1 101256Z 27007KT M00/M05 A3033 RMK A01 T10031050  RH  071%=      5-min Rain = 0
KES1 101257Z 27008KT M00/M05 A3033 RMK A01 T10011049  RH  070%=      5-min Rain = 0
KES1 101258Z 27007KT 00/M05 A3033 RMK A01 T00021048  RH  069%=      5-min Rain = 0
KES1 101259Z 27007KT 00/M05 A3033 RMK A01 T00031048  RH  069%=      5-min Rain = 0
KES1 101300Z 27007KT 00/M05 A3033 RMK A01 T00031048  RH  069%=      5-min Rain = 0
KES1 101301Z 27007KT 00/M05 A3033 RMK A01 T00031048  RH  068%=      5-min Rain = 0
KES1 101302Z 27007KT 00/M05 A3033 RMK A01 T00031049  RH  068%=      5-min Rain = 0
KES1 101303Z 27008KT 00/M05 A3033 RMK A01 T00041048  RH  068%=      5-min Rain = 0
KES1 101304Z 27007KT 01/M05 A3033 RMK A01 T00051048  RH  068%=      5-min Rain = 0
KES1 101305Z 28008KT 01/M05 A3033 RMK A01 T00051049  RH  067%=      5-min Rain = 0
KES1 101306Z 28008KT 01/M05 A3034 RMK A01 T00061049  RH  067%=      5-min Rain = 0
KES1 101307Z 28008KT 01/M05 A3034 RMK A01 T00061049  RH  067%=      5-min Rain = 0
KES1 101308Z 27008KT 01/M05 A3034 RMK A01 T00061049  RH  067%=      5-min Rain = 0
KES1 101309Z 27008KT 01/M05 A3034 RMK A01 T00061049  RH  067%=      5-min Rain = 0
KES1 101310Z 27007KT 01/M05 A3034 RMK A01 T00071048  RH  066%=      5-min Rain = 0
KES1 101311Z 27008KT 01/M05 A3034 RMK A01 T00071048  RH  067%=      5-min Rain = 0
KES1 101312Z 26009KT 01/M05 A3034 RMK A01 T00071048  RH  067%=      5-min Rain = 0
KES1 101313Z 27008KT 01/M05 A3034 RMK A01 T00071049  RH  066%=      5-min Rain = 0
KES1 101314Z 26008KT 01/M05 A3034 RMK A01 T00071049  RH  066%=      5-min Rain = 0
KES1 101315Z 27008KT 01/M05 A3034 RMK A01 T00071049  RH  066%=      5-min Rain = 0
KES1 101316Z 26008KT 01/M05 A3034 RMK A01 T00061049  RH  066%=      5-min Rain = 0
KES1 101317Z 26007KT 01/M05 A3034 RMK A01 T00061049  RH  066%=      5-min Rain = 0
KES1 101318Z 27008KT 01/M05 A3034 RMK A01 T00051049  RH  067%=      5-min Rain = 0
KES1 101319Z 27008KT 01/M05 A3034 RMK A01 T00051049  RH  067%=      5-min Rain = 0
KES1 101320Z 27008KT 01/M05 A3034 RMK A01 T00051050  RH  067%=      5-min Rain = 0
KES1 101321Z 27008KT 01/M05 A3034 RMK A01 T00051049  RH  067%=      5-min Rain = 0
KES1 101322Z 27009KT 01/M05 A3034 RMK A01 T00061050  RH  066%=      5-min Rain = 0
KES1 101323Z 27009KT 01/M05 A3034 RMK A01 T00071050  RH  066%=      5-min Rain = 0
KES1 101324Z 28009KT 01/M05 A3034 RMK A01 T00091050  RH  065%=      5-min Rain = 0
KES1 101325Z 28010KT 01/M05 A3034 RMK A01 T00101051  RH  064%=      5-min Rain = 0
KES1 101326Z 28009KT 01/M05 A3034 RMK A01 T00111051  RH  063%=      5-min Rain = 0
KES1 101327Z 28010KT 01/M05 A3034 RMK A01 T00131051  RH  063%=      5-min Rain = 0
KES1 101328Z 28009KT 01/M05 A3034 RMK A01 T00131051  RH  062%=      5-min Rain = 0
KES1 101329Z 27009KT 01/M05 A3034 RMK A01 T00131051  RH  062%=      5-min Rain = 0
KES1 101330Z 28009KT 01/M05 A3034 RMK A01 T00131051  RH  062%=      5-min Rain = 0
KES1 101331Z 28009KT 01/M05 A3034 RMK A01 T00131051  RH  062%=      5-min Rain = 0
KES1 101332Z 27008KT 01/M05 A3034 RMK A01 T00131051  RH  062%=      5-min Rain = 0
KES1 101333Z 28009KT 01/M05 A3034 RMK A01 T00121051  RH  063%=      5-min Rain = 0
KES1 101334Z 27009KT 01/M05 A3034 RMK A01 T00121051  RH  063%=      5-min Rain = 0
KES1 101335Z 27008KT 01/M05 A3034 RMK A01 T00121051  RH  063%=      5-min Rain = 0
KES1 101336Z 27009KT 01/M05 A3034 RMK A01 T00111051  RH  063%=      5-min Rain = 0
KES1 101337Z 27009KT 01/M05 A3034 RMK A01 T00111052  RH  063%=      5-min Rain = 0
KES1 101338Z 27009KT 01/M05 A3034 RMK A01 T00111051  RH  063%=      5-min Rain = 0
KES1 101339Z 27008KT 01/M05 A3034 RMK A01 T00111051  RH  063%=      5-min Rain = 0
KES1 101340Z 27007KT 01/M05 A3034 RMK A01 T00111051  RH  063%=      5-min Rain = 0
KES1 101341Z 27008KT 01/M05 A3034 RMK A01 T00111051  RH  063%=      5-min Rain = 0
KES1 101342Z 28006KT 01/M05 A3034 RMK A01 T00111052  RH  063%=      5-min Rain = 0
KES1 101343Z 28005KT 01/M05 A3034 RMK A01 T00111052  RH  063%=      5-min Rain = 0
KES1 101344Z 31004KT 01/M05 A3035 RMK A01 T00111052  RH  063%=      5-min Rain = 0
KES1 101345Z 34004KT 01/M05 A3035 RMK A01 T00111051  RH  063%=      5-min Rain = 0
KES1 101346Z 04006KT 01/M05 A3035 RMK A01 T00091050  RH  064%=      5-min Rain = 0
KES1 101347Z 02005KT 00/M05 A3035 RMK A01 T00031054  RH  065%=      5-min Rain = 0
KES1 101348Z 34004KT M00/M06 A3035 RMK A01 T10021055  RH  068%=      5-min Rain = 0
KES1 101349Z 31005KT M00/M05 A3035 RMK A01 T10031053  RH  069%=      5-min Rain = 0
KES1 101350Z 29006KT M00/M05 A3034 RMK A01 T10021051  RH  069%=      5-min Rain = 0
KES1 101351Z 29007KT 00/05 A3034 RMK A01 T00000-51  RH  069%=      5-min Rain = 0
KES1 101352Z 29007KT 00/M05 A3034 RMK A01 T00021050  RH  068%=      5-min Rain = 0
KES1 101353Z 30007KT 00/M05 A3034 RMK A01 T00031050  RH  068%=      5-min Rain = 0
KES1 101354Z 32006KT 00/M05 A3035 RMK A01 T00031050  RH  068%=      5-min Rain = 0
KES1 101355Z 33005KT 00/M05 A3035 RMK A01 T00021048  RH  069%=      5-min Rain = 0
KES1 101356Z 35005KT 00/M05 A3035 RMK A01 T00021047  RH  070%=      5-min Rain = 0
KES1 101357Z 01005KT 00/M05 A3035 RMK A01 T00011048  RH  069%=      5-min Rain = 0
KES1 101358Z 01006KT 00/05 A3035 RMK A01 T00000-49  RH  069%=      5-min Rain = 0
KES1 101359Z 01006KT M00/M05 A3035 RMK A01 T10021050  RH  070%=      5-min Rain = 0
KES1 101400Z 01006KT M00/M05 A3035 RMK A01 T10031051  RH  070%=      5-min Rain = 0
KES1 101401Z 35005KT M00/M05 A3035 RMK A01 T10031050  RH  071%=      5-min Rain = 0
KES1 101402Z 32005KT M00/M05 A3035 RMK A01 T10031050  RH  071%=      5-min Rain = 0
KES1 101403Z 31005KT M00/M05 A3035 RMK A01 T10031050  RH  070%=      5-min Rain = 0
KES1 101404Z 31006KT M00/M05 A3035 RMK A01 T10011049  RH  070%=      5-min Rain = 0
KES1 101405Z 33005KT 00/05 A3035 RMK A01 T00000-48  RH  070%=      5-min Rain = 0
KES1 101406Z 35005KT 00/05 A3035 RMK A01 T00-00-47  RH  071%=      5-min Rain = 0
KES1 101407Z 02004KT M00/M05 A3035 RMK A01 T10021047  RH  071%=      5-min Rain = 0
KES1 101408Z 03004KT M00/M05 A3035 RMK A01 T10031049  RH  071%=      5-min Rain = 0
KES1 101409Z 01004KT M01/M05 A3035 RMK A01 T10071051  RH  072%=      5-min Rain = 0
KES1 101410Z 32003KT M01/M05 A3035 RMK A01 T10101052  RH  073%=      5-min Rain = 0
KES1 101411Z 31003KT M01/M05 A3035 RMK A01 T10111051  RH  074%=      5-min Rain = 0
KES1 101412Z 30004KT M01/M05 A3035 RMK A01 T10111050  RH  075%=      5-min Rain = 0
KES1 101413Z 30004KT M01/M05 A3035 RMK A01 T10111050  RH  075%=      5-min Rain = 0
KES1 101414Z 31003KT M01/M05 A3035 RMK A01 T10101048  RH  075%=      5-min Rain = 0
KES1 101415Z 32002KT M01/M05 A3035 RMK A01 T10091047  RH  076%=      5-min Rain = 0
KES1 101416Z 32002KT M01/M05 A3035 RMK A01 T10081045  RH  076%=      5-min Rain = 0
KES1 101417Z 32003KT M01/M05 A3035 RMK A01 T10081046  RH  075%=      5-min Rain = 0
KES1 101418Z 33002KT M01/M05 A3035 RMK A01 T10081048  RH  074%=      5-min Rain = 0
KES1 101419Z 33002KT M01/M05 A3035 RMK A01 T10071048  RH  074%=      5-min Rain = 0
KES1 101420Z 34001KT M01/M05 A3035 RMK A01 T10051046  RH  074%=      5-min Rain = 0
KES1 101421Z 01001KT M01/M05 A3035 RMK A01 T10051047  RH  073%=      5-min Rain = 0
KES1 101422Z 05002KT M01/M05 A3035 RMK A01 T10051048  RH  073%=      5-min Rain = 0
KES1 101423Z 04005KT M01/M05 A3035 RMK A01 T10051047  RH  074%=      5-min Rain = 0
KES1 101424Z 06007KT M01/M05 A3036 RMK A01 T10061047  RH  074%=      5-min Rain = 0
KES1 101425Z 06006KT M01/M05 A3036 RMK A01 T10081047  RH  075%=      5-min Rain = 0
KES1 101426Z 06005KT M01/M05 A3036 RMK A01 T10101047  RH  076%=      5-min Rain = 0
KES1 101427Z 05004KT M01/M05 A3036 RMK A01 T10111047  RH  077%=      5-min Rain = 0
KES1 101428Z 05005KT M01/M05 A3036 RMK A01 T10121046  RH  078%=      5-min Rain = 0
KES1 101429Z 04005KT M01/M05 A3036 RMK A01 T10121046  RH  077%=      5-min Rain = 0
KES1 101430Z 03004KT M01/M05 A3036 RMK A01 T10121047  RH  077%=      5-min Rain = 0
KES1 101431Z 04003KT M01/M05 A3036 RMK A01 T10121047  RH  077%=      5-min Rain = 0
KES1 101432Z 04003KT M01/M05 A3036 RMK A01 T10131047  RH  077%=      5-min Rain = 0
KES1 101433Z 04004KT M01/M05 A3036 RMK A01 T10131047  RH  077%=      5-min Rain = 0
KES1 101434Z 04005KT M01/M05 A3036 RMK A01 T10131046  RH  078%=      5-min Rain = 0
KES1 101435Z 04004KT M01/M05 A3036 RMK A01 T10121045  RH  079%=      5-min Rain = 0
KES1 101436Z 03003KT M01/M05 A3037 RMK A01 T10121045  RH  078%=      5-min Rain = 0
KES1 101437Z 04002KT M01/M05 A3037 RMK A01 T10111046  RH  077%=      5-min Rain = 0
KES1 101438Z 04003KT M01/M05 A3037 RMK A01 T10111046  RH  077%=      5-min Rain = 0
KES1 101439Z 04003KT M01/M05 A3037 RMK A01 T10101045  RH  077%=      5-min Rain = 0
KES1 101440Z 04003KT M01/M04 A3037 RMK A01 T10091044  RH  077%=      5-min Rain = 0
KES1 101441Z 05004KT M01/M04 A3037 RMK A01 T10071044  RH  076%=      5-min Rain = 0
KES1 101442Z 05003KT M01/M04 A3037 RMK A01 T10061044  RH  075%=      5-min Rain = 0
KES1 101443Z 04002KT M01/M04 A3037 RMK A01 T10061044  RH  075%=      5-min Rain = 0
KES1 101444Z 03002KT M01/M04 A3037 RMK A01 T10061044  RH  075%=      5-min Rain = 0
KES1 101445Z 01002KT M01/M04 A3037 RMK A01 T10051044  RH  075%=      5-min Rain = 0
KES1 101446Z 02002KT M01/M04 A3037 RMK A01 T10051044  RH  074%=      5-min Rain = 0
KES1 101447Z 01003KT M01/M04 A3037 RMK A01 T10051044  RH  075%=      5-min Rain = 0
KES1 101448Z 01004KT M00/M04 A3037 RMK A01 T10041043  RH  075%=      5-min Rain = 0
KES1 101449Z 00003KT M00/M04 A3037 RMK A01 T10021042  RH  075%=      5-min Rain = 0
KES1 101450Z 03003KT M00/M04 A3037 RMK A01 T10011041  RH  075%=      5-min Rain = 0
KES1 101451Z 02003KT M00/M04 A3037 RMK A01 T10011040  RH  075%=      5-min Rain = 0
KES1 101452Z 02002KT 00/04 A3037 RMK A01 T00-00-41  RH  074%=      5-min Rain = 0
KES1 101453Z 01003KT 00/M04 A3037 RMK A01 T00011039  RH  074%=      5-min Rain = 0
KES1 101454Z 01003KT 00/M04 A3037 RMK A01 T00021039  RH  074%=      5-min Rain = 0
KES1 101455Z 00004KT 00/M04 A3037 RMK A01 T00031041  RH  072%=      5-min Rain = 0
KES1 101456Z 36004KT 00/M04 A3038 RMK A01 T00031043  RH  071%=      5-min Rain = 0
KES1 101457Z 35004KT 00/M04 A3038 RMK A01 T00041043  RH  071%=      5-min Rain = 0
KES1 101458Z 00004KT 00/M04 A3038 RMK A01 T00031043  RH  071%=      5-min Rain = 0
KES1 101459Z 01004KT 00/M04 A3038 RMK A01 T00041044  RH  071%=      5-min Rain = 0
KES1 101500Z 01003KT 01/M04 A3038 RMK A01 T00051042  RH  071%=      5-min Rain = 0
KES1 101501Z 01003KT 01/M04 A3038 RMK A01 T00051042  RH  071%=      5-min Rain = 0
KES1 101502Z 01003KT 01/M04 A3038 RMK A01 T00051043  RH  070%=      5-min Rain = 0
KES1 101503Z 36003KT 01/M04 A3038 RMK A01 T00061043  RH  070%=      5-min Rain = 0
KES1 101504Z 36003KT 01/M04 A3038 RMK A01 T00061043  RH  070%=      5-min Rain = 0
KES1 101505Z 00003KT 01/M04 A3038 RMK A01 T00061043  RH  070%=      5-min Rain = 0
KES1 101506Z 02003KT 01/M04 A3038 RMK A01 T00061041  RH  071%=      5-min Rain = 0
KES1 101507Z 01004KT 01/M04 A3038 RMK A01 T00071042  RH  070%=      5-min Rain = 0
KES1 101508Z 01004KT 01/M04 A3038 RMK A01 T00071043  RH  069%=      5-min Rain = 0
KES1 101509Z 00003KT 01/M04 A3038 RMK A01 T00081043  RH  069%=      5-min Rain = 0
KES1 101510Z 01003KT 01/M04 A3038 RMK A01 T00081042  RH  069%=      5-min Rain = 0
KES1 101511Z 02003KT 01/M04 A3038 RMK A01 T00091041  RH  070%=      5-min Rain = 0
KES1 101512Z 04003KT 01/M04 A3038 RMK A01 T00091040  RH  069%=      5-min Rain = 0
KES1 101513Z 04002KT 01/M04 A3038 RMK A01 T00101039  RH  070%=      5-min Rain = 0
KES1 101514Z 03003KT 01/M04 A3038 RMK A01 T00101039  RH  070%=      5-min Rain = 0
KES1 101515Z 02002KT 01/M04 A3039 RMK A01 T00101040  RH  069%=      5-min Rain = 0
KES1 101516Z 00002KT 01/M04 A3039 RMK A01 T00101041  RH  068%=      5-min Rain = 0
KES1 101517Z 00001KT 01/M04 A3039 RMK A01 T00111040  RH  069%=      5-min Rain = 0
KES1 101518Z 35002KT 01/M04 A3039 RMK A01 T00101039  RH  069%=      5-min Rain = 0
KES1 101519Z 32001KT 01/M04 A3039 RMK A01 T00101039  RH  070%=      5-min Rain = 0
KES1 101520Z 33001KT 01/M04 A3039 RMK A01 T00111040  RH  069%=      5-min Rain = 0
KES1 101521Z 33001KT 01/M04 A3038 RMK A01 T00111039  RH  069%=      5-min Rain = 0
KES1 101522Z 33001KT 01/M04 A3039 RMK A01 T00121037  RH  070%=      5-min Rain = 0
KES1 101523Z 33001KT 01/M04 A3039 RMK A01 T00121038  RH  069%=      5-min Rain = 0
KES1 101524Z 33001KT 01/M04 A3039 RMK A01 T00131037  RH  069%=      5-min Rain = 0
KES1 101525Z 33001KT 02/M03 A3039 RMK A01 T00151034  RH  070%=      5-min Rain = 0
KES1 101526Z 35001KT 02/M04 A3039 RMK A01 T00161035  RH  069%=      5-min Rain = 0
KES1 101527Z 35001KT 02/M04 A3039 RMK A01 T00171035  RH  068%=      5-min Rain = 0
KES1 101528Z 35002KT 02/M04 A3039 RMK A01 T00171037  RH  067%=      5-min Rain = 0
KES1 101529Z 35002KT 02/M04 A3039 RMK A01 T00171038  RH  067%=      5-min Rain = 0
KES1 101530Z 01001KT 02/M04 A3039 RMK A01 T00171041  RH  065%=      5-min Rain = 0
KES1 101531Z 01001KT 02/M04 A3039 RMK A01 T00181041  RH  065%=      5-min Rain = 0
KES1 101532Z 02002KT 02/M04 A3039 RMK A01 T00181041  RH  065%=      5-min Rain = 0
KES1 101533Z 02001KT 02/M04 A3039 RMK A01 T00191042  RH  064%=      5-min Rain = 0
KES1 101534Z 35001KT 02/M04 A3039 RMK A01 T00201040  RH  064%=      5-min Rain = 0
KES1 101535Z 35001KT 02/M04 A3039 RMK A01 T00221041  RH  063%=      5-min Rain = 0
KES1 101536Z 00000KT 02/M04 A3039 RMK A01 T00221042  RH  062%=      5-min Rain = 0
KES1 101537Z 33001KT 02/M05 A3039 RMK A01 T00241045  RH  060%=      5-min Rain = 0
KES1 101538Z 31001KT 03/M04 A3039 RMK A01 T00251041  RH  062%=      5-min Rain = 0
KES1 101539Z 29001KT 03/M04 A3039 RMK A01 T00261039  RH  062%=      5-min Rain = 0
KES1 101540Z 29001KT 03/M04 A3039 RMK A01 T00271040  RH  062%=      5-min Rain = 0
KES1 101541Z 29001KT 03/M04 A3038 RMK A01 T00271043  RH  060%=      5-min Rain = 0
KES1 101542Z 30001KT 03/M05 A3038 RMK A01 T00281046  RH  058%=      5-min Rain = 0
KES1 101543Z 28002KT 03/M05 A3038 RMK A01 T00301049  RH  056%=      5-min Rain = 0
KES1 101544Z 28002KT 03/M05 A3038 RMK A01 T00321048  RH  056%=      5-min Rain = 0
KES1 101545Z 28002KT 03/M05 A3038 RMK A01 T00331047  RH  056%=      5-min Rain = 0
KES1 101546Z 28002KT 04/M04 A3038 RMK A01 T00351043  RH  057%=      5-min Rain = 0
KES1 101547Z 28002KT 04/M04 A3038 RMK A01 T00361042  RH  057%=      5-min Rain = 0
KES1 101548Z 31002KT 04/M04 A3039 RMK A01 T00381040  RH  057%=      5-min Rain = 0
KES1 101549Z 31001KT 04/M04 A3039 RMK A01 T00401043  RH  055%=      5-min Rain = 0
KES1 101550Z 00002KT 04/M04 A3039 RMK A01 T00411041  RH  055%=      5-min Rain = 0
KES1 101551Z 01002KT 04/M04 A3039 RMK A01 T00411040  RH  056%=      5-min Rain = 0
KES1 101552Z 01001KT 04/M04 A3039 RMK A01 T00411041  RH  055%=      5-min Rain = 0
KES1 101553Z 35001KT 04/M04 A3039 RMK A01 T00411044  RH  054%=      5-min Rain = 0
KES1 101554Z 02003KT 04/M04 A3039 RMK A01 T00411040  RH  055%=      5-min Rain = 0
KES1 101555Z 01003KT 04/M04 A3039 RMK A01 T00421041  RH  055%=      5-min Rain = 0
KES1 101556Z 36002KT 04/M04 A3039 RMK A01 T00441040  RH  055%=      5-min Rain = 0
KES1 101557Z 33003KT 05/M04 A3039 RMK A01 T00451036  RH  056%=      5-min Rain = 0
KES1 101558Z 35003KT 05/M04 A3039 RMK A01 T00451038  RH  055%=      5-min Rain = 0
KES1 101559Z 00003KT 04/M04 A3039 RMK A01 T00441042  RH  054%=      5-min Rain = 0
KES1 101600Z 35003KT 04/M04 A3039 RMK A01 T00441039  RH  055%=      5-min Rain = 0
KES1 101601Z 01003KT 04/M04 A3039 RMK A01 T00441040  RH  054%=      5-min Rain = 0
KES1 101602Z 01003KT 04/M04 A3039 RMK A01 T00441040  RH  054%=      5-min Rain = 0
KES1 101603Z 01002KT 04/M04 A3039 RMK A01 T00441042  RH  054%=      5-min Rain = 0
KES1 101604Z 01002KT 04/M04 A3039 RMK A01 T00441042  RH  054%=      5-min Rain = 0
KES1 101605Z 00001KT 05/M04 A3039 RMK A01 T00451038  RH  055%=      5-min Rain = 0
KES1 101606Z 35003KT 05/M04 A3039 RMK A01 T00471037  RH  055%=      5-min Rain = 0
KES1 101607Z 35003KT 05/M04 A3039 RMK A01 T00471036  RH  055%=      5-min Rain = 0
KES1 101608Z 35003KT 05/M04 A3039 RMK A01 T00481037  RH  054%=      5-min Rain = 0
KES1 101609Z 36003KT 05/M04 A3039 RMK A01 T00481039  RH  053%=      5-min Rain = 0
KES1 101610Z 36003KT 05/M04 A3039 RMK A01 T00481039  RH  053%=      5-min Rain = 0
KES1 101611Z 35002KT 05/M04 A3039 RMK A01 T00481037  RH  054%=      5-min Rain = 0
KES1 101612Z 36003KT 05/M03 A3039 RMK A01 T00501033  RH  055%=      5-min Rain = 0
KES1 101613Z 02003KT 05/M04 A3039 RMK A01 T00511036  RH  054%=      5-min Rain = 0
KES1 101614Z 02002KT 05/M04 A3039 RMK A01 T00511037  RH  053%=      5-min Rain = 0
KES1 101615Z 02001KT 05/M04 A3039 RMK A01 T00521036  RH  053%=      5-min Rain = 0
KES1 101616Z 00002KT 05/M03 A3039 RMK A01 T00541033  RH  053%=      5-min Rain = 0
KES1 101617Z 36001KT 06/M03 A3039 RMK A01 T00551033  RH  053%=      5-min Rain = 0
KES1 101618Z 32001KT 06/M03 A3039 RMK A01 T00561032  RH  053%=      5-min Rain = 0
KES1 101619Z 33003KT 06/M03 A3039 RMK A01 T00571033  RH  052%=      5-min Rain = 0
KES1 101620Z 32003KT 06/M04 A3039 RMK A01 T00571035  RH  052%=      5-min Rain = 0
KES1 101621Z 32002KT 06/M03 A3039 RMK A01 T00581033  RH  052%=      5-min Rain = 0
KES1 101622Z 32002KT 06/M03 A3039 RMK A01 T00601033  RH  052%=      5-min Rain = 0
KES1 101623Z 33003KT 06/M04 A3039 RMK A01 T00611036  RH  050%=      5-min Rain = 0
KES1 101624Z 33001KT 06/M03 A3039 RMK A01 T00631034  RH  050%=      5-min Rain = 0
KES1 101625Z 32001KT 06/M04 A3039 RMK A01 T00641036  RH  049%=      5-min Rain = 0
KES1 101626Z 33001KT 06/M04 A3039 RMK A01 T00641037  RH  048%=      5-min Rain = 0
KES1 101627Z 35002KT 06/M04 A3039 RMK A01 T00631037  RH  049%=      5-min Rain = 0
KES1 101628Z 34003KT 06/M04 A3039 RMK A01 T00631035  RH  049%=      5-min Rain = 0
KES1 101629Z 34004KT 07/M04 A3039 RMK A01 T00651038  RH  048%=      5-min Rain = 0
KES1 101630Z 36004KT 07/M04 A3039 RMK A01 T00661037  RH  048%=      5-min Rain = 0
KES1 101631Z 00003KT 07/M04 A3039 RMK A01 T00671042  RH  046%=      5-min Rain = 0
KES1 101632Z 01004KT 07/M04 A3039 RMK A01 T00671040  RH  046%=      5-min Rain = 0
KES1 101633Z 00004KT 07/M04 A3039 RMK A01 T00671040  RH  046%=      5-min Rain = 0
KES1 101634Z 35003KT 07/M04 A3039 RMK A01 T00681036  RH  047%=      5-min Rain = 0
KES1 101635Z 36004KT 07/M04 A3039 RMK A01 T00691040  RH  046%=      5-min Rain = 0
KES1 101636Z 02003KT 07/M04 A3038 RMK A01 T00681039  RH  046%=      5-min Rain = 0
KES1 101637Z 35003KT 07/M04 A3038 RMK A01 T00691038  RH  046%=      5-min Rain = 0
KES1 101638Z 34003KT 07/M04 A3038 RMK A01 T00701038  RH  046%=      5-min Rain = 0
KES1 101639Z 34005KT 07/M04 A3038 RMK A01 T00701040  RH  045%=      5-min Rain = 0
KES1 101640Z 01004KT 07/M04 A3038 RMK A01 T00701039  RH  046%=      5-min Rain = 0
KES1 101641Z 02003KT 07/M04 A3038 RMK A01 T00701042  RH  045%=      5-min Rain = 0
KES1 101642Z 01005KT 07/M04 A3038 RMK A01 T00711042  RH  044%=      5-min Rain = 0
KES1 101643Z 36006KT 07/M04 A3038 RMK A01 T00721040  RH  045%=      5-min Rain = 0
KES1 101644Z 00004KT 07/M05 A3038 RMK A01 T00701045  RH  044%=      5-min Rain = 0
KES1 101645Z 34004KT 07/M05 A3038 RMK A01 T00691045  RH  044%=      5-min Rain = 0
KES1 101646Z 34004KT 07/M04 A3038 RMK A01 T00691044  RH  044%=      5-min Rain = 0
KES1 101647Z 33004KT 07/M04 A3038 RMK A01 T00691041  RH  045%=      5-min Rain = 0
KES1 101648Z 34005KT 07/M04 A3038 RMK A01 T00701042  RH  045%=      5-min Rain = 0
KES1 101649Z 03003KT 07/M04 A3038 RMK A01 T00711038  RH  046%=      5-min Rain = 0
KES1 101650Z 01003KT 08/M04 A3038 RMK A01 T00751035  RH  046%=      5-min Rain = 0
KES1 101651Z 02004KT 08/M04 A3038 RMK A01 T00771040  RH  043%=      5-min Rain = 0
KES1 101652Z 03005KT 08/M04 A3038 RMK A01 T00771044  RH  042%=      5-min Rain = 0
KES1 101653Z 03004KT 08/M05 A3038 RMK A01 T00771046  RH  042%=      5-min Rain = 0
KES1 101654Z 03004KT 08/M04 A3038 RMK A01 T00771043  RH  043%=      5-min Rain = 0
KES1 101655Z 03005KT 08/M04 A3038 RMK A01 T00781042  RH  042%=      5-min Rain = 0
KES1 101656Z 02004KT 08/M05 A3038 RMK A01 T00781049  RH  040%=      5-min Rain = 0
KES1 101657Z 02003KT 08/M05 A3038 RMK A01 T00751049  RH  041%=      5-min Rain = 0
KES1 101658Z 01003KT 07/M05 A3038 RMK A01 T00741047  RH  042%=      5-min Rain = 0
KES1 101659Z 02005KT 07/M04 A3038 RMK A01 T00741043  RH  043%=      5-min Rain = 0
KES1 101700Z 01004KT 07/M04 A3038 RMK A01 T00741044  RH  043%=      5-min Rain = 0
KES1 101701Z 02003KT 07/M05 A3038 RMK A01 T00731050  RH  041%=      5-min Rain = 0
KES1 101702Z 00003KT 07/M05 A3038 RMK A01 T00711046  RH  043%=      5-min Rain = 0
KES1 101703Z 33002KT 07/M05 A3038 RMK A01 T00711045  RH  043%=      5-min Rain = 0
KES1 101704Z 35004KT 07/M05 A3038 RMK A01 T00711045  RH  044%=      5-min Rain = 0
KES1 101705Z 01005KT 07/M04 A3038 RMK A01 T00711042  RH  044%=      5-min Rain = 0
KES1 101706Z 03004KT 07/M05 A3038 RMK A01 T00711046  RH  043%=      5-min Rain = 0
KES1 101707Z 02003KT 07/M05 A3038 RMK A01 T00711047  RH  043%=      5-min Rain = 0
KES1 101708Z 00002KT 07/M05 A3038 RMK A01 T00711046  RH  043%=      5-min Rain = 0
KES1 101709Z 34002KT 07/M05 A3038 RMK A01 T00721047  RH  043%=      5-min Rain = 0
KES1 101710Z 34003KT 07/M04 A3038 RMK A01 T00721044  RH  044%=      5-min Rain = 0
KES1 101711Z 36003KT 07/M04 A3038 RMK A01 T00721043  RH  044%=      5-min Rain = 0
KES1 101712Z 01004KT 07/M04 A3038 RMK A01 T00721041  RH  044%=      5-min Rain = 0
KES1 101713Z 01003KT 07/M04 A3038 RMK A01 T00731044  RH  043%=      5-min Rain = 0
KES1 101714Z 36003KT 07/M04 A3038 RMK A01 T00721043  RH  044%=      5-min Rain = 0
KES1 101715Z 35004KT 07/M04 A3038 RMK A01 T00731038  RH  045%=      5-min Rain = 0
KES1 101716Z 35003KT 07/M04 A3038 RMK A01 T00741038  RH  045%=      5-min Rain = 0
KES1 101717Z 33004KT 07/M04 A3038 RMK A01 T00741039  RH  044%=      5-min Rain = 0
KES1 101718Z 35003KT 07/M04 A3038 RMK A01 T00741040  RH  044%=      5-min Rain = 0
KES1 101719Z 34002KT 07/M04 A3038 RMK A01 T00741038  RH  045%=      5-min Rain = 0
KES1 101720Z 32003KT 07/M04 A3038 RMK A01 T00741039  RH  045%=      5-min Rain = 0
KES1 101721Z 34003KT 08/M04 A3038 RMK A01 T00751036  RH  045%=      5-min Rain = 0
KES1 101722Z 01003KT 08/M04 A3038 RMK A01 T00751040  RH  044%=      5-min Rain = 0
KES1 101723Z 00002KT 08/M04 A3038 RMK A01 T00751041  RH  044%=      5-min Rain = 0
KES1 101724Z 34003KT 08/M04 A3038 RMK A01 T00751038  RH  045%=      5-min Rain = 0
KES1 101725Z 35002KT 07/M04 A3038 RMK A01 T00741042  RH  044%=      5-min Rain = 0
KES1 101726Z 36002KT 07/M04 A3038 RMK A01 T00731039  RH  045%=      5-min Rain = 0
KES1 101727Z 04003KT 08/M04 A3038 RMK A01 T00751037  RH  045%=      5-min Rain = 0
KES1 101728Z 03005KT 08/M04 A3037 RMK A01 T00781038  RH  043%=      5-min Rain = 0
KES1 101729Z 02004KT 08/M04 A3037 RMK A01 T00801037  RH  043%=      5-min Rain = 0
KES1 101730Z 03003KT 08/M04 A3037 RMK A01 T00811040  RH  042%=      5-min Rain = 0
KES1 101731Z 06003KT 08/M04 A3037 RMK A01 T00801040  RH  043%=      5-min Rain = 0
KES1 101732Z 08003KT 08/M04 A3037 RMK A01 T00801042  RH  042%=      5-min Rain = 0
KES1 101733Z 10002KT 08/M04 A3037 RMK A01 T00801041  RH  042%=      5-min Rain = 0
KES1 101734Z 11001KT 08/M04 A3037 RMK A01 T00811042  RH  041%=      5-min Rain = 0
KES1 101735Z 09003KT 08/M04 A3037 RMK A01 T00821038  RH  042%=      5-min Rain = 0
KES1 101736Z 13002KT 08/M04 A3037 RMK A01 T00841039  RH  041%=      5-min Rain = 0
KES1 101737Z 14001KT 08/M04 A3037 RMK A01 T00841043  RH  040%=      5-min Rain = 0
KES1 101738Z 12001KT 08/M04 A3037 RMK A01 T00841041  RH  041%=      5-min Rain = 0
KES1 101739Z 02001KT 09/M04 A3037 RMK A01 T00851041  RH  041%=      5-min Rain = 0
KES1 101740Z 00002KT 08/M04 A3037 RMK A01 T00841038  RH  042%=      5-min Rain = 0
KES1 101741Z 04002KT 08/M04 A3037 RMK A01 T00821039  RH  042%=      5-min Rain = 0
KES1 101742Z 05003KT 08/M04 A3036 RMK A01 T00821040  RH  042%=      5-min Rain = 0
KES1 101743Z 05002KT 08/M04 A3036 RMK A01 T00821042  RH  041%=      5-min Rain = 0
KES1 101744Z 05003KT 08/M04 A3036 RMK A01 T00821040  RH  042%=      5-min Rain = 0
KES1 101745Z 07003KT 08/M04 A3036 RMK A01 T00831038  RH  042%=      5-min Rain = 0
KES1 101746Z 05003KT 08/M04 A3036 RMK A01 T00841040  RH  041%=      5-min Rain = 0
KES1 101747Z 04003KT 08/M04 A3036 RMK A01 T00841039  RH  042%=      5-min Rain = 0
KES1 101748Z 04003KT 08/M04 A3036 RMK A01 T00841040  RH  041%=      5-min Rain = 0
KES1 101749Z 06002KT 08/M04 A3036 RMK A01 T00831042  RH  041%=      5-min Rain = 0
KES1 101750Z 09001KT 08/M04 A3036 RMK A01 T00831041  RH  042%=      5-min Rain = 0
KES1 101751Z 03002KT 09/M03 A3036 RMK A01 T00851032  RH  044%=      5-min Rain = 0
KES1 101752Z 01001KT 09/M03 A3036 RMK A01 T00891029  RH  043%=      5-min Rain = 0
KES1 101753Z 36003KT 09/M03 A3036 RMK A01 T00911031  RH  042%=      5-min Rain = 0
KES1 101754Z 34003KT 09/M03 A3036 RMK A01 T00911033  RH  042%=      5-min Rain = 0
KES1 101755Z 34002KT 09/M04 A3036 RMK A01 T00881038  RH  041%=      5-min Rain = 0
KES1 101756Z 35002KT 09/M04 A3036 RMK A01 T00861036  RH  042%=      5-min Rain = 0
KES1 101757Z 01001KT 09/M04 A3036 RMK A01 T00861035  RH  042%=      5-min Rain = 0
KES1 101758Z 01000KT 09/M04 A3036 RMK A01 T00871037  RH  041%=      5-min Rain = 0
KES1 101759Z 11001KT 09/M03 A3036 RMK A01 T00881033  RH  043%=      5-min Rain = 0
KES1 101800Z 17001KT 09/M04 A3035 RMK A01 T00911035  RH  041%=      5-min Rain = 0
KES1 101801Z 16001KT 09/M04 A3035 RMK A01 T00931039  RH  039%=      5-min Rain = 0
KES1 101802Z 17002KT 09/M04 A3035 RMK A01 T00941039  RH  039%=      5-min Rain = 0
KES1 101803Z 09002KT 09/M04 A3035 RMK A01 T00941036  RH  040%=      5-min Rain = 0
KES1 101804Z 08001KT 09/M04 A3035 RMK A01 T00941038  RH  039%=      5-min Rain = 0
KES1 101805Z 08001KT 09/M04 A3035 RMK A01 T00931040  RH  039%=      5-min Rain = 0
KES1 101806Z 09004KT 09/M04 A3035 RMK A01 T00931037  RH  040%=      5-min Rain = 0
KES1 101807Z 09005KT 09/M04 A3035 RMK A01 T00941037  RH  040%=      5-min Rain = 0
KES1 101808Z 09004KT 09/M04 A3035 RMK A01 T00941038  RH  039%=      5-min Rain = 0
KES1 101809Z 07004KT 09/M04 A3035 RMK A01 T00921039  RH  039%=      5-min Rain = 0
KES1 101810Z 09003KT 09/M04 A3035 RMK A01 T00931035  RH  040%=      5-min Rain = 0
KES1 101811Z 13002KT 09/M04 A3035 RMK A01 T00941036  RH  040%=      5-min Rain = 0
KES1 101812Z 14003KT 10/M04 A3035 RMK A01 T00951037  RH  039%=      5-min Rain = 0
KES1 101813Z 15003KT 10/M04 A3035 RMK A01 T00961039  RH  038%=      5-min Rain = 0
KES1 101814Z 16003KT 10/M04 A3034 RMK A01 T00961040  RH  038%=      5-min Rain = 0
KES1 101815Z 16002KT 09/M04 A3034 RMK A01 T00931041  RH  038%=      5-min Rain = 0
KES1 101816Z 17002KT 09/M04 A3034 RMK A01 T00921042  RH  039%=      5-min Rain = 0
KES1 101817Z 14001KT 09/M04 A3034 RMK A01 T00911040  RH  039%=      5-min Rain = 0
KES1 101818Z 21002KT 09/M04 A3034 RMK A01 T00941037  RH  039%=      5-min Rain = 0
KES1 101819Z 24002KT 10/M04 A3034 RMK A01 T00961040  RH  038%=      5-min Rain = 0
KES1 101820Z 18002KT 10/M04 A3034 RMK A01 T00961038  RH  039%=      5-min Rain = 0
KES1 101821Z 17003KT 10/M04 A3034 RMK A01 T00961037  RH  039%=      5-min Rain = 0
KES1 101822Z 14004KT 10/M04 A3034 RMK A01 T00981036  RH  039%=      5-min Rain = 0
KES1 101823Z 11004KT 10/M04 A3034 RMK A01 T00991038  RH  038%=      5-min Rain = 0
KES1 101824Z 11003KT 10/M04 A3034 RMK A01 T00981038  RH  038%=      5-min Rain = 0
KES1 101825Z 13002KT 10/M04 A3034 RMK A01 T00971038  RH  038%=      5-min Rain = 0
KES1 101826Z 10001KT 10/M04 A3034 RMK A01 T00971041  RH  038%=      5-min Rain = 0
KES1 101827Z 20001KT 10/M04 A3034 RMK A01 T00961039  RH  038%=      5-min Rain = 0
KES1 101828Z 20003KT 10/M03 A3034 RMK A01 T00981033  RH  040%=      5-min Rain = 0
KES1 101829Z 18002KT 10/M04 A3034 RMK A01 T01011036  RH  038%=      5-min Rain = 0
KES1 101830Z 20001KT 10/M04 A3033 RMK A01 T01021039  RH  037%=      5-min Rain = 0
KES1 101831Z 26001KT 10/M04 A3033 RMK A01 T01021038  RH  037%=      5-min Rain = 0
KES1 101832Z 17000KT 10/M04 A3033 RMK A01 T01011039  RH  037%=      5-min Rain = 0
KES1 101833Z 24000KT 10/M04 A3033 RMK A01 T01021039  RH  037%=      5-min Rain = 0
KES1 101834Z 12001KT 10/M04 A3033 RMK A01 T01031039  RH  037%=      5-min Rain = 0
KES1 101835Z 08002KT 11/M04 A3033 RMK A01 T01051037  RH  037%=      5-min Rain = 0
KES1 101836Z 09001KT 10/M04 A3033 RMK A01 T01041040  RH  036%=      5-min Rain = 0
KES1 101837Z 07003KT 10/M04 A3033 RMK A01 T01031037  RH  037%=      5-min Rain = 0
KES1 101838Z 08004KT 10/M04 A3033 RMK A01 T01041037  RH  037%=      5-min Rain = 0
KES1 101839Z 10004KT 10/M04 A3033 RMK A01 T01041036  RH  037%=      5-min Rain = 0
KES1 101840Z 12003KT 10/M04 A3033 RMK A01 T01031038  RH  037%=      5-min Rain = 0
KES1 101841Z 10004KT 10/M04 A3033 RMK A01 T01031036  RH  037%=      5-min Rain = 0
KES1 101842Z 08005KT 11/M04 A3033 RMK A01 T01051035  RH  037%=      5-min Rain = 0
KES1 101843Z 10002KT 11/M04 A3033 RMK A01 T01051037  RH  037%=      5-min Rain = 0
KES1 101844Z 12002KT 10/M04 A3033 RMK A01 T01041037  RH  037%=      5-min Rain = 0
KES1 101845Z 08004KT 11/M04 A3033 RMK A01 T01061036  RH  037%=      5-min Rain = 0
KES1 101846Z 07004KT 11/M04 A3033 RMK A01 T01061036  RH  037%=      5-min Rain = 0
KES1 101847Z 04004KT 11/M04 A3033 RMK A01 T01061039  RH  036%=      5-min Rain = 0
KES1 101848Z 04004KT 10/M04 A3033 RMK A01 T01041039  RH  036%=      5-min Rain = 0
KES1 101849Z 03004KT 10/M04 A3033 RMK A01 T01041035  RH  037%=      5-min Rain = 0
KES1 101850Z 04003KT 10/M04 A3033 RMK A01 T01041036  RH  037%=      5-min Rain = 0
KES1 101851Z 08005KT 11/M03 A3032 RMK A01 T01051034  RH  037%=      5-min Rain = 0
KES1 101852Z 14006KT 11/M03 A3032 RMK A01 T01061034  RH  037%=      5-min Rain = 0
KES1 101853Z 12005KT 11/M04 A3032 RMK A01 T01071035  RH  037%=      5-min Rain = 0
KES1 101854Z 13006KT 11/M04 A3032 RMK A01 T01071039  RH  036%=      5-min Rain = 0
KES1 101855Z 13005KT 11/M04 A3032 RMK A01 T01051039  RH  036%=      5-min Rain = 0
KES1 101856Z 12004KT 11/M04 A3032 RMK A01 T01051040  RH  036%=      5-min Rain = 0
KES1 101857Z 11005KT 10/M04 A3032 RMK A01 T01041038  RH  036%=      5-min Rain = 0
KES1 101858Z 11003KT 11/M04 A3032 RMK A01 T01051039  RH  036%=      5-min Rain = 0
KES1 101859Z 12004KT 11/M04 A3032 RMK A01 T01051040  RH  036%=      5-min Rain = 0
KES1 101900Z 11004KT 11/M04 A3032 RMK A01 T01051040  RH  036%=      5-min Rain = 0
KES1 101901Z 10003KT 11/M04 A3032 RMK A01 T01061040  RH  036%=      5-min Rain = 0
KES1 101902Z 09003KT 11/M04 A3032 RMK A01 T01061038  RH  036%=      5-min Rain = 0
KES1 101903Z 09002KT 11/M04 A3032 RMK A01 T01051041  RH  036%=      5-min Rain = 0
KES1 101904Z 11000KT 11/M04 A3032 RMK A01 T01051037  RH  037%=      5-min Rain = 0
KES1 101905Z 33000KT 11/M04 A3032 RMK A01 T01061039  RH  036%=      5-min Rain = 0
KES1 101906Z 09002KT 11/M04 A3032 RMK A01 T01071039  RH  036%=      5-min Rain = 0
KES1 101907Z 07002KT 11/M04 A3032 RMK A01 T01081041  RH  035%=      5-min Rain = 0
KES1 101908Z 07003KT 11/M04 A3032 RMK A01 T01091038  RH  035%=      5-min Rain = 0
KES1 101909Z 08002KT 11/M04 A3032 RMK A01 T01091041  RH  035%=      5-min Rain = 0
KES1 101910Z 09001KT 11/M04 A3032 RMK A01 T01091040  RH  035%=      5-min Rain = 0
KES1 101911Z 09003KT 11/M04 A3032 RMK A01 T01101036  RH  036%=      5-min Rain = 0
KES1 101912Z 08003KT 11/M04 A3031 RMK A01 T01091044  RH  034%=      5-min Rain = 0
KES1 101913Z 08003KT 11/M04 A3031 RMK A01 T01071043  RH  034%=      5-min Rain = 0
KES1 101914Z 10001KT 11/M04 A3031 RMK A01 T01061044  RH  034%=      5-min Rain = 0
KES1 101915Z 16001KT 11/M04 A3031 RMK A01 T01071044  RH  034%=      5-min Rain = 0
KES1 101916Z 17001KT 11/M04 A3031 RMK A01 T01091043  RH  034%=      5-min Rain = 0
KES1 101917Z 19002KT 11/M04 A3031 RMK A01 T01101044  RH  034%=      5-min Rain = 0
KES1 101918Z 17003KT 11/M04 A3031 RMK A01 T01111043  RH  034%=      5-min Rain = 0
KES1 101919Z 17001KT 11/M04 A3031 RMK A01 T01111043  RH  034%=      5-min Rain = 0
KES1 101920Z 20001KT 11/M04 A3031 RMK A01 T01121044  RH  033%=      5-min Rain = 0
KES1 101921Z 25000KT 11/M04 A3031 RMK A01 T01131044  RH  033%=      5-min Rain = 0
KES1 101922Z 27001KT 12/M05 A3031 RMK A01 T01151045  RH  032%=      5-min Rain = 0
KES1 101923Z 27002KT 12/M05 A3031 RMK A01 T01151045  RH  032%=      5-min Rain = 0
KES1 101924Z 26002KT 11/M04 A3031 RMK A01 T01141044  RH  033%=      5-min Rain = 0
KES1 101925Z 24002KT 12/M04 A3031 RMK A01 T01151043  RH  033%=      5-min Rain = 0
KES1 101926Z 23001KT 12/M04 A3031 RMK A01 T01151040  RH  034%=      5-min Rain = 0
KES1 101927Z 22000KT 12/M04 A3031 RMK A01 T01151042  RH  033%=      5-min Rain = 0
KES1 101928Z 13002KT 12/M04 A3031 RMK A01 T01171040  RH  033%=      5-min Rain = 0
KES1 101929Z 13003KT 12/M04 A303 RMK A01 T01191040  RH  033%=      5-min Rain = 0
KES1 101930Z 14003KT 12/M04 A303 RMK A01 T01201039  RH  033%=      5-min Rain = 0
KES1 101931Z 15001KT 12/M04 A303 RMK A01 T01201039  RH  033%=      5-min Rain = 0
KES1 101932Z 20000KT 12/M04 A303 RMK A01 T01201037  RH  033%=      5-min Rain = 0
KES1 101933Z 36002KT 12/M04 A303 RMK A01 T01211036  RH  033%=      5-min Rain = 0
KES1 101934Z 09001KT 12/M04 A303 RMK A01 T01191036  RH  034%=      5-min Rain = 0
KES1 101935Z 13003KT 12/M04 A303 RMK A01 T01191037  RH  034%=      5-min Rain = 0
KES1 101936Z 14003KT 12/M04 A303 RMK A01 T01201037  RH  033%=      5-min Rain = 0
KES1 101937Z 12003KT 12/M04 A303 RMK A01 T01201039  RH  033%=      5-min Rain = 0
KES1 101938Z 10005KT 12/M04 A303 RMK A01 T01201037  RH  033%=      5-min Rain = 0
KES1 101939Z 10004KT 12/M04 A303 RMK A01 T01201035  RH  034%=      5-min Rain = 0
KES1 101940Z 16005KT 12/M04 A303 RMK A01 T01201038  RH  033%=      5-min Rain = 0
KES1 101941Z 15003KT 12/M04 A303 RMK A01 T01211040  RH  032%=      5-min Rain = 0
KES1 101942Z 14003KT 12/M04 A303 RMK A01 T01211040  RH  032%=      5-min Rain = 0
KES1 101943Z 13002KT 12/M04 A303 RMK A01 T01201042  RH  032%=      5-min Rain = 0
KES1 101944Z 10003KT 12/M04 A303 RMK A01 T01201041  RH  032%=      5-min Rain = 0
KES1 101945Z 10003KT 12/M04 A303 RMK A01 T01211041  RH  032%=      5-min Rain = 0
KES1 101946Z 09003KT 12/M04 A303 RMK A01 T01191043  RH  032%=      5-min Rain = 0
KES1 101947Z 07001KT 12/M04 A303 RMK A01 T01181044  RH  032%=      5-min Rain = 0
KES1 101948Z 16001KT 12/M04 A303 RMK A01 T01171044  RH  032%=      5-min Rain = 0
KES1 101949Z 19001KT 12/M04 A303 RMK A01 T01181042  RH  032%=      5-min Rain = 0
KES1 101950Z 17002KT 12/M04 A303 RMK A01 T01201041  RH  032%=      5-min Rain = 0
KES1 101951Z 08000KT 12/M04 A303 RMK A01 T01201042  RH  032%=      5-min Rain = 0
KES1 101952Z 17000KT 12/M03 A303 RMK A01 T01221034  RH  034%=      5-min Rain = 0
KES1 101953Z 07001KT 12/M03 A3029 RMK A01 T01231032  RH  034%=      5-min Rain = 0
KES1 101954Z 04001KT 13/M03 A3029 RMK A01 T01261033  RH  033%=      5-min Rain = 0
KES1 101955Z 09003KT 13/M04 A3029 RMK A01 T01271036  RH  032%=      5-min Rain = 0
KES1 101956Z 08003KT 13/M04 A3029 RMK A01 T01251043  RH  031%=      5-min Rain = 0
KES1 101957Z 09004KT 12/M04 A3029 RMK A01 T01231043  RH  031%=      5-min Rain = 0
KES1 101958Z 06002KT 12/M04 A3029 RMK A01 T01201043  RH  032%=      5-min Rain = 0
KES1 101959Z 05002KT 12/M03 A3029 RMK A01 T01201034  RH  034%=      5-min Rain = 0
KES1 102000Z 08004KT 12/M04 A3029 RMK A01 T01221037  RH  033%=      5-min Rain = 0
KES1 102001Z 12006KT 12/M04 A3029 RMK A01 T01231039  RH  032%=      5-min Rain = 0
KES1 102002Z 12005KT 12/M04 A3029 RMK A01 T01231040  RH  032%=      5-min Rain = 0
KES1 102003Z 13005KT 12/M04 A3029 RMK A01 T01231040  RH  032%=      5-min Rain = 0
KES1 102004Z 13004KT 12/M04 A3029 RMK A01 T01241037  RH  032%=      5-min Rain = 0
KES1 102005Z 11004KT 13/M04 A3029 RMK A01 T01261040  RH  031%=      5-min Rain = 0
KES1 102006Z 11003KT 12/M04 A3029 RMK A01 T01241040  RH  031%=      5-min Rain = 0
KES1 102007Z 13003KT 12/M04 A3029 RMK A01 T01241040  RH  032%=      5-min Rain = 0
KES1 102008Z 14003KT 13/M04 A3029 RMK A01 T01251039  RH  032%=      5-min Rain = 0
KES1 102009Z 14002KT 13/M04 A3029 RMK A01 T01261040  RH  031%=      5-min Rain = 0
KES1 102010Z 19000KT 13/M04 A3029 RMK A01 T01261039  RH  031%=      5-min Rain = 0
KES1 102011Z 11002KT 13/M04 A3029 RMK A01 T01271040  RH  031%=      5-min Rain = 0
KES1 102012Z 08003KT 13/M04 A3029 RMK A01 T01271041  RH  031%=      5-min Rain = 0
KES1 102013Z 09003KT 13/M04 A3029 RMK A01 T01271040  RH  031%=      5-min Rain = 0
KES1 102014Z 08004KT 13/M04 A3029 RMK A01 T01261040  RH  031%=      5-min Rain = 0
KES1 102015Z 10004KT 13/M04 A3029 RMK A01 T01261042  RH  031%=      5-min Rain = 0
KES1 102016Z 09003KT 12/M04 A3029 RMK A01 T01231044  RH  031%=      5-min Rain = 0
KES1 102017Z 09001KT 12/M04 A3029 RMK A01 T01221041  RH  032%=      5-min Rain = 0
KES1 102018Z 26001KT 12/M04 A3029 RMK A01 T01231041  RH  032%=      5-min Rain = 0
KES1 102019Z 08000KT 13/M03 A3029 RMK A01 T01251033  RH  033%=      5-min Rain = 0
KES1 102020Z 06002KT 13/M04 A3029 RMK A01 T01281037  RH  032%=      5-min Rain = 0
KES1 102021Z 07001KT 13/M04 A3029 RMK A01 T01271041  RH  031%=      5-min Rain = 0
KES1 102022Z 13003KT 13/M04 A3028 RMK A01 T01271040  RH  031%=      5-min Rain = 0
KES1 102023Z 13004KT 13/M04 A3028 RMK A01 T01271038  RH  031%=      5-min Rain = 0
KES1 102024Z 13004KT 13/M04 A3028 RMK A01 T01291039  RH  031%=      5-min Rain = 0
KES1 102025Z 14003KT 13/M04 A3028 RMK A01 T01301038  RH  031%=      5-min Rain = 0
KES1 102026Z 14003KT 13/M04 A3028 RMK A01 T01301040  RH  030%=      5-min Rain = 0
KES1 102027Z 13003KT 13/M04 A3028 RMK A01 T01311041  RH  030%=      5-min Rain = 0
KES1 102028Z 12003KT 13/M04 A3028 RMK A01 T01301040  RH  030%=      5-min Rain = 0
KES1 102029Z 11004KT 13/M04 A3028 RMK A01 T01301040  RH  031%=      5-min Rain = 0
KES1 102030Z 09003KT 13/M04 A3028 RMK A01 T01301039  RH  031%=      5-min Rain = 0
KES1 102031Z 16002KT 13/M04 A3028 RMK A01 T01311036  RH  031%=      5-min Rain = 0
KES1 102032Z 15002KT 13/M04 A3028 RMK A01 T01321038  RH  030%=      5-min Rain = 0
KES1 102033Z 14002KT 13/M04 A3028 RMK A01 T01331039  RH  030%=      5-min Rain = 0
KES1 102034Z 13001KT 13/M04 A3028 RMK A01 T01331039  RH  030%=      5-min Rain = 0
KES1 102035Z 08003KT 13/M04 A3028 RMK A01 T01321041  RH  030%=      5-min Rain = 0
KES1 102036Z 11004KT 13/M04 A3028 RMK A01 T01301043  RH  030%=      5-min Rain = 0
KES1 102037Z 11004KT 13/M04 A3028 RMK A01 T01291041  RH  030%=      5-min Rain = 0
KES1 102038Z 12001KT 13/M05 A3028 RMK A01 T01271045  RH  030%=      5-min Rain = 0
KES1 102039Z 08002KT 13/M04 A3028 RMK A01 T01261043  RH  031%=      5-min Rain = 0
KES1 102040Z 07002KT 13/M04 A3028 RMK A01 T01261041  RH  031%=      5-min Rain = 0
KES1 102041Z 10003KT 13/M04 A3028 RMK A01 T01271039  RH  031%=      5-min Rain = 0
KES1 102042Z 11003KT 13/M04 A3028 RMK A01 T01281042  RH  030%=      5-min Rain = 0
KES1 102043Z 08003KT 13/M04 A3028 RMK A01 T01271043  RH  030%=      5-min Rain = 0
KES1 102044Z 19001KT 13/M04 A3028 RMK A01 T01271040  RH  031%=      5-min Rain = 0
KES1 102045Z 25000KT 13/M04 A3028 RMK A01 T01291039  RH  031%=      5-min Rain = 0
KES1 102046Z 22002KT 13/M04 A3028 RMK A01 T01311040  RH  030%=      5-min Rain = 0
KES1 102047Z 19002KT 13/M04 A3028 RMK A01 T01331039  RH  030%=      5-min Rain = 0
KES1 102048Z 19001KT 13/M04 A3028 RMK A01 T01341041  RH  029%=      5-min Rain = 0
KES1 102049Z 19001KT 14/M04 A3028 RMK A01 T01351041  RH  029%=      5-min Rain = 0
KES1 102050Z 20001KT 14/M04 A3028 RMK A01 T01371038  RH  029%=      5-min Rain = 0
KES1 102051Z 22001KT 14/M04 A3028 RMK A01 T01391040  RH  029%=      5-min Rain = 0
KES1 102052Z 27001KT 14/M04 A3028 RMK A01 T01391036  RH  030%=      5-min Rain = 0
KES1 102053Z 28001KT 14/M03 A3028 RMK A01 T01401034  RH  030%=      5-min Rain = 0
KES1 102054Z 24001KT 14/M03 A3028 RMK A01 T01401033  RH  030%=      5-min Rain = 0
KES1 102055Z 21001KT 14/M03 A3028 RMK A01 T01421034  RH  029%=      5-min Rain = 0
KES1 102056Z 12001KT 14/M04 A3028 RMK A01 T01431037  RH  029%=      5-min Rain = 0
KES1 102057Z 08004KT 14/M04 A3028 RMK A01 T01421040  RH  028%=      5-min Rain = 0
KES1 102058Z 08003KT 14/M04 A3028 RMK A01 T01381039  RH  029%=      5-min Rain = 0
KES1 102059Z 09005KT 14/M04 A3028 RMK A01 T01381036  RH  030%=      5-min Rain = 0
KES1 102100Z 08005KT 14/M04 A3028 RMK A01 T01361036  RH  030%=      5-min Rain = 0
KES1 102101Z 09006KT 14/M04 A3028 RMK A01 T01351036  RH  030%=      5-min Rain = 0
KES1 102102Z 07005KT 13/M04 A3028 RMK A01 T01341038  RH  030%=      5-min Rain = 0
KES1 102103Z 07005KT 13/M04 A3028 RMK A01 T01331038  RH  030%=      5-min Rain = 0
KES1 102104Z 07003KT 13/M04 A3028 RMK A01 T01301042  RH  030%=      5-min Rain = 0
KES1 102105Z 08003KT 13/M04 A3028 RMK A01 T01281041  RH  031%=      5-min Rain = 0
KES1 102106Z 08005KT 13/M04 A3028 RMK A01 T01291038  RH  031%=      5-min Rain = 0
KES1 102107Z 06004KT 13/M04 A3028 RMK A01 T01291040  RH  031%=      5-min Rain = 0
KES1 102108Z 08006KT 13/M04 A3028 RMK A01 T01291039  RH  031%=      5-min Rain = 0
KES1 102109Z 08006KT 13/M04 A3028 RMK A01 T01291037  RH  031%=      5-min Rain = 0
KES1 102110Z 08005KT 13/M04 A3028 RMK A01 T01301038  RH  031%=      5-min Rain = 0
KES1 102111Z 08005KT 13/M04 A3028 RMK A01 T01291040  RH  031%=      5-min Rain = 0
KES1 102112Z 07004KT 13/M04 A3028 RMK A01 T01281038  RH  031%=      5-min Rain = 0
KES1 102113Z 07005KT 13/M04 A3028 RMK A01 T01281038  RH  031%=      5-min Rain = 0
KES1 102114Z 08004KT 13/M04 A3028 RMK A01 T01291037  RH  031%=      5-min Rain = 0
KES1 102115Z 12005KT 13/M04 A3028 RMK A01 T01301036  RH  031%=      5-min Rain = 0
KES1 102116Z 12003KT 13/M04 A3028 RMK A01 T01311038  RH  031%=      5-min Rain = 0
KES1 102117Z 12002KT 13/M04 A3028 RMK A01 T01311039  RH  030%=      5-min Rain = 0
KES1 102118Z 08004KT 13/M04 A3028 RMK A01 T01311038  RH  031%=      5-min Rain = 0
KES1 102119Z 13003KT 13/M04 A3028 RMK A01 T01301038  RH  031%=      5-min Rain = 0
KES1 102120Z 14003KT 13/M04 A3028 RMK A01 T01311035  RH  031%=      5-min Rain = 0
KES1 102121Z 14002KT 13/M04 A3028 RMK A01 T01331038  RH  030%=      5-min Rain = 0
KES1 102122Z 09001KT 13/M04 A3028 RMK A01 T01341036  RH  031%=      5-min Rain = 0
KES1 102123Z 09002KT 13/M04 A3028 RMK A01 T01341037  RH  030%=      5-min Rain = 0
KES1 102124Z 08004KT 13/M04 A3028 RMK A01 T01341037  RH  030%=      5-min Rain = 0
KES1 102125Z 08003KT 13/M03 A3028 RMK A01 T01341034  RH  031%=      5-min Rain = 0
KES1 102126Z 07003KT 13/M04 A3028 RMK A01 T01341038  RH  030%=      5-min Rain = 0
KES1 102127Z 10003KT 13/M04 A3028 RMK A01 T01331035  RH  031%=      5-min Rain = 0
KES1 102128Z 08003KT 13/M04 A3028 RMK A01 T01331038  RH  030%=      5-min Rain = 0
KES1 102129Z 34001KT 13/M04 A3028 RMK A01 T01311040  RH  030%=      5-min Rain = 0
KES1 102130Z 06001KT 13/M04 A3028 RMK A01 T01311038  RH  031%=      5-min Rain = 0
KES1 102131Z 08004KT 13/M04 A3028 RMK A01 T01311038  RH  031%=      5-min Rain = 0
KES1 102132Z 08004KT 13/M04 A3028 RMK A01 T01311038  RH  031%=      5-min Rain = 0
KES1 102133Z 07004KT 13/M04 A3028 RMK A01 T01311038  RH  031%=      5-min Rain = 0
KES1 102134Z 10002KT 13/M04 A3028 RMK A01 T01301039  RH  031%=      5-min Rain = 0
KES1 102135Z 14003KT 13/M04 A3028 RMK A01 T01301038  RH  031%=      5-min Rain = 0
KES1 102136Z 13003KT 13/M04 A3028 RMK A01 T01301039  RH  031%=      5-min Rain = 0
KES1 102137Z 10003KT 13/M04 A3028 RMK A01 T01301040  RH  030%=      5-min Rain = 0
KES1 102138Z 14003KT 13/M04 A3028 RMK A01 T01291040  RH  031%=      5-min Rain = 0
KES1 102139Z 14002KT 13/M04 A3028 RMK A01 T01301038  RH  031%=      5-min Rain = 0
KES1 102140Z 10003KT 13/M04 A3028 RMK A01 T01301038  RH  031%=      5-min Rain = 0
KES1 102141Z 10003KT 13/M04 A3028 RMK A01 T01311037  RH  031%=      5-min Rain = 0
KES1 102142Z 12004KT 13/M04 A3028 RMK A01 T01311037  RH  031%=      5-min Rain = 0
KES1 102143Z 13004KT 13/M04 A3028 RMK A01 T01311035  RH  031%=      5-min Rain = 0
KES1 102144Z 14005KT 13/M03 A3028 RMK A01 T01321033  RH  032%=      5-min Rain = 0
KES1 102145Z 13006KT 13/M04 A3028 RMK A01 T01331035  RH  031%=      5-min Rain = 0
KES1 102146Z 13006KT 13/M03 A3028 RMK A01 T01321034  RH  031%=      5-min Rain = 0
KES1 102147Z 13006KT 13/M04 A3028 RMK A01 T01311035  RH  031%=      5-min Rain = 0
KES1 102148Z 12005KT 13/M04 A3028 RMK A01 T01301035  RH  032%=      5-min Rain = 0
KES1 102149Z 12005KT 13/M03 A3028 RMK A01 T01301034  RH  032%=      5-min Rain = 0
KES1 102150Z 11006KT 13/M03 A3028 RMK A01 T01291034  RH  032%=      5-min Rain = 0
KES1 102151Z 11004KT 13/M04 A3028 RMK A01 T01291037  RH  031%=      5-min Rain = 0
KES1 102152Z 11004KT 13/M04 A3028 RMK A01 T01281036  RH  032%=      5-min Rain = 0
KES1 102153Z 12005KT 13/M03 A3028 RMK A01 T01281034  RH  032%=      5-min Rain = 0
KES1 102154Z 12004KT 13/M04 A3028 RMK A01 T01281035  RH  032%=      5-min Rain = 0
KES1 102155Z 11004KT 13/M03 A3028 RMK A01 T01281033  RH  032%=      5-min Rain = 0
KES1 102156Z 11004KT 13/M03 A3028 RMK A01 T01291034  RH  032%=      5-min Rain = 0
KES1 102157Z 12004KT 13/M03 A3028 RMK A01 T01291034  RH  032%=      5-min Rain = 0
KES1 102158Z 12006KT 13/M03 A3028 RMK A01 T01291033  RH  032%=      5-min Rain = 0
KES1 102159Z 12007KT 13/M03 A3028 RMK A01 T01291033  RH  032%=      5-min Rain = 0
KES1 102200Z 12007KT 13/M03 A3028 RMK A01 T01281033  RH  032%=      5-min Rain = 0
KES1 102201Z 11006KT 13/M03 A3028 RMK A01 T01271033  RH  033%=      5-min Rain = 0
KES1 102202Z 11005KT 13/M03 A3028 RMK A01 T01271033  RH  033%=      5-min Rain = 0
KES1 102203Z 10005KT 13/M03 A3028 RMK A01 T01261034  RH  032%=      5-min Rain = 0
KES1 102204Z 10005KT 13/M03 A3028 RMK A01 T01271032  RH  033%=      5-min Rain = 0
KES1 102205Z 11007KT 13/M03 A3028 RMK A01 T01271033  RH  033%=      5-min Rain = 0
KES1 102206Z 11006KT 13/M03 A3028 RMK A01 T01271034  RH  032%=      5-min Rain = 0
KES1 102207Z 10006KT 13/M03 A3028 RMK A01 T01271033  RH  033%=      5-min Rain = 0
KES1 102208Z 10006KT 13/M03 A3028 RMK A01 T01271034  RH  033%=      5-min Rain = 0
KES1 102209Z 10007KT 13/M03 A3028 RMK A01 T01261034  RH  033%=      5-min Rain = 0
KES1 102210Z 10006KT 13/M03 A3028 RMK A01 T01261033  RH  033%=      5-min Rain = 0
KES1 102211Z 10006KT 13/M03 A3028 RMK A01 T01261033  RH  033%=      5-min Rain = 0
KES1 102212Z 10005KT 13/M03 A3028 RMK A01 T01261034  RH  033%=      5-min Rain = 0
KES1 102213Z 11006KT 13/M03 A3028 RMK A01 T01261032  RH  033%=      5-min Rain = 0
KES1 102214Z 10005KT 13/M03 A3028 RMK A01 T01261033  RH  033%=      5-min Rain = 0
KES1 102215Z 10006KT 13/M03 A3028 RMK A01 T01261033  RH  033%=      5-min Rain = 0
KES1 102216Z 10005KT 13/M03 A3028 RMK A01 T01261032  RH  033%=      5-min Rain = 0
KES1 102217Z 10005KT 13/M03 A3028 RMK A01 T01261032  RH  033%=      5-min Rain = 0
KES1 102218Z 10006KT 13/M03 A3028 RMK A01 T01261032  RH  033%=      5-min Rain = 0
KES1 102219Z 11006KT 13/M03 A3028 RMK A01 T01261032  RH  033%=      5-min Rain = 0
KES1 102220Z 11005KT 13/M03 A3028 RMK A01 T01261033  RH  033%=      5-min Rain = 0
KES1 102221Z 11005KT 13/M03 A3028 RMK A01 T01251033  RH  033%=      5-min Rain = 0
KES1 102222Z 12005KT 13/M03 A3028 RMK A01 T01251030  RH  034%=      5-min Rain = 0
KES1 102223Z 13005KT 13/M03 A3028 RMK A01 T01251029  RH  034%=      5-min Rain = 0
KES1 102224Z 11005KT 13/M03 A3028 RMK A01 T01251029  RH  034%=      5-min Rain = 0
KES1 102225Z 11004KT 13/M03 A3028 RMK A01 T01251029  RH  034%=      5-min Rain = 0
KES1 102226Z 11005KT 13/M03 A3028 RMK A01 T01251029  RH  034%=      5-min Rain = 0
KES1 102227Z 12005KT 13/M03 A3028 RMK A01 T01251029  RH  034%=      5-min Rain = 0
KES1 102228Z 13004KT 13/M03 A3028 RMK A01 T01251029  RH  034%=      5-min Rain = 0
KES1 102229Z 13005KT 12/M03 A3028 RMK A01 T01241030  RH  034%=      5-min Rain = 0
KES1 102230Z 13005KT 12/M03 A3028 RMK A01 T01241030  RH  034%=      5-min Rain = 0
KES1 102231Z 13005KT 12/M03 A3028 RMK A01 T01241029  RH  034%=      5-min Rain = 0
KES1 102232Z 12005KT 12/M03 A3028 RMK A01 T01241029  RH  034%=      5-min Rain = 0
KES1 102233Z 11004KT 12/M03 A3028 RMK A01 T01241028  RH  035%=      5-min Rain = 0
KES1 102234Z 11005KT 12/M03 A3028 RMK A01 T01231029  RH  035%=      5-min Rain = 0
KES1 102235Z 11006KT 12/M03 A3028 RMK A01 T01231028  RH  035%=      5-min Rain = 0
KES1 102236Z 12007KT 12/M03 A3028 RMK A01 T01231028  RH  035%=      5-min Rain = 0
KES1 102237Z 11006KT 12/M03 A3028 RMK A01 T01231028  RH  035%=      5-min Rain = 0
KES1 102238Z 12005KT 12/M03 A3028 RMK A01 T01231027  RH  035%=      5-min Rain = 0
KES1 102239Z 12005KT 12/M03 A3028 RMK A01 T01221027  RH  035%=      5-min Rain = 0
KES1 102240Z 12004KT 12/M03 A3028 RMK A01 T01221027  RH  035%=      5-min Rain = 0
KES1 102241Z 13006KT 12/M03 A3028 RMK A01 T01211026  RH  036%=      5-min Rain = 0
KES1 102242Z 13006KT 12/M03 A3028 RMK A01 T01211027  RH  036%=      5-min Rain = 0
KES1 102243Z 12006KT 12/M03 A3028 RMK A01 T01211027  RH  036%=      5-min Rain = 0
KES1 102244Z 13005KT 12/M03 A3028 RMK A01 T01211026  RH  036%=      5-min Rain = 0
KES1 102245Z 12004KT 12/M03 A3028 RMK A01 T01211025  RH  036%=      5-min Rain = 0
KES1 102246Z 12005KT 12/M03 A3028 RMK A01 T01211025  RH  036%=      5-min Rain = 0
KES1 102247Z 12005KT 12/M03 A3028 RMK A01 T01201025  RH  036%=      5-min Rain = 0
KES1 102248Z 13005KT 12/M03 A3028 RMK A01 T01201025  RH  036%=      5-min Rain = 0
KES1 102249Z 12005KT 12/M03 A3028 RMK A01 T01191026  RH  036%=      5-min Rain = 0
KES1 102250Z 11006KT 12/M03 A3028 RMK A01 T01201026  RH  036%=      5-min Rain = 0
KES1 102251Z 11006KT 12/M03 A3028 RMK A01 T01191026  RH  036%=      5-min Rain = 0
KES1 102252Z 12006KT 12/M03 A3028 RMK A01 T01191025  RH  037%=      5-min Rain = 0
KES1 102253Z 12006KT 12/M03 A3028 RMK A01 T01181025  RH  037%=      5-min Rain = 0
KES1 102254Z 12006KT 12/M03 A3028 RMK A01 T01171025  RH  037%=      5-min Rain = 0
KES1 102255Z 12005KT 12/M03 A3028 RMK A01 T01171025  RH  037%=      5-min Rain = 0
KES1 102256Z 12005KT 12/M02 A3028 RMK A01 T01171024  RH  037%=      5-min Rain = 0
KES1 102257Z 12005KT 12/M02 A3028 RMK A01 T01171024  RH  037%=      5-min Rain = 0
KES1 102258Z 12005KT 12/M02 A3028 RMK A01 T01161024  RH  038%=      5-min Rain = 0
KES1 102259Z 12004KT 12/M02 A3028 RMK A01 T01161023  RH  038%=      5-min Rain = 0
KES1 102300Z 12006KT 12/M02 A3027 RMK A01 T01151023  RH  038%=      5-min Rain = 0
KES1 102301Z 12005KT 11/M02 A3027 RMK A01 T01141024  RH  038%=      5-min Rain = 0
KES1 102302Z 12005KT 11/M02 A3027 RMK A01 T01141023  RH  038%=      5-min Rain = 0
KES1 102303Z 12005KT 11/M02 A3027 RMK A01 T01131023  RH  039%=      5-min Rain = 0
KES1 102304Z 12004KT 11/M02 A3027 RMK A01 T01111023  RH  039%=      5-min Rain = 0
KES1 102305Z 12005KT 11/M02 A3028 RMK A01 T01101023  RH  039%=      5-min Rain = 0
KES1 102306Z 12005KT 11/M02 A3028 RMK A01 T01101022  RH  040%=      5-min Rain = 0
KES1 102307Z 12005KT 11/M02 A3028 RMK A01 T01091023  RH  040%=      5-min Rain = 0
KES1 102308Z 12005KT 11/M02 A3028 RMK A01 T01081023  RH  040%=      5-min Rain = 0
KES1 102309Z 12005KT 11/M02 A3028 RMK A01 T01081023  RH  040%=      5-min Rain = 0
KES1 102310Z 12005KT 11/M02 A3028 RMK A01 T01071023  RH  040%=      5-min Rain = 0
KES1 102311Z 12005KT 11/M02 A3028 RMK A01 T01061022  RH  041%=      5-min Rain = 0
KES1 102312Z 12005KT 11/M02 A3028 RMK A01 T01051022  RH  041%=      5-min Rain = 0
KES1 102313Z 12005KT 10/M02 A3027 RMK A01 T01041022  RH  041%=      5-min Rain = 0
KES1 102314Z 12005KT 10/M02 A3027 RMK A01 T01031022  RH  041%=      5-min Rain = 0
KES1 102315Z 12005KT 10/M02 A3028 RMK A01 T01021022  RH  042%=      5-min Rain = 0
KES1 102316Z 13006KT 10/M02 A3028 RMK A01 T01011022  RH  042%=      5-min Rain = 0
KES1 102317Z 12006KT 10/M02 A3028 RMK A01 T01011022  RH  042%=      5-min Rain = 0
KES1 102318Z 12006KT 10/M02 A3028 RMK A01 T01011022  RH  042%=      5-min Rain = 0
KES1 102319Z 12006KT 10/M02 A3027 RMK A01 T01011021  RH  042%=      5-min Rain = 0
KES1 102320Z 12006KT 10/M02 A3027 RMK A01 T01011021  RH  042%=      5-min Rain = 0
KES1 102321Z 12007KT 10/M02 A3027 RMK A01 T00991022  RH  043%=      5-min Rain = 0
KES1 102322Z 12007KT 10/M02 A3027 RMK A01 T00981022  RH  043%=      5-min Rain = 0
KES1 102323Z 12006KT 10/M02 A3027 RMK A01 T00971022  RH  043%=      5-min Rain = 0
KES1 102324Z 12007KT 10/M02 A3027 RMK A01 T00961021  RH  044%=      5-min Rain = 0
KES1 102325Z 12007KT 10/M02 A3027 RMK A01 T00961021  RH  044%=      5-min Rain = 0
KES1 102326Z 12007KT 10/M02 A3027 RMK A01 T00951021  RH  044%=      5-min Rain = 0
KES1 102327Z 12007KT 10/M02 A3027 RMK A01 T00951021  RH  044%=      5-min Rain = 0
KES1 102328Z 12007KT 10/M02 A3027 RMK A01 T00951020  RH  044%=      5-min Rain = 0
KES1 102329Z 12007KT 09/M02 A3027 RMK A01 T00941020  RH  045%=      5-min Rain = 0
KES1 102330Z 13007KT 09/M02 A3027 RMK A01 T00931021  RH  045%=      5-min Rain = 0
KES1 102331Z 13007KT 09/M02 A3027 RMK A01 T00931020  RH  045%=      5-min Rain = 0
KES1 102332Z 13006KT 09/M02 A3027 RMK A01 T00921020  RH  045%=      5-min Rain = 0
KES1 102333Z 13007KT 09/M02 A3028 RMK A01 T00911020  RH  046%=      5-min Rain = 0
KES1 102334Z 13007KT 09/M02 A3028 RMK A01 T00911019  RH  046%=      5-min Rain = 0
KES1 102335Z 13007KT 09/M02 A3028 RMK A01 T00911019  RH  046%=      5-min Rain = 0
KES1 102336Z 13007KT 09/M02 A3028 RMK A01 T00901019  RH  046%=      5-min Rain = 0
KES1 102337Z 13007KT 09/M02 A3028 RMK A01 T00901019  RH  046%=      5-min Rain = 0
KES1 102338Z 13007KT 09/M02 A3028 RMK A01 T00901018  RH  047%=      5-min Rain = 0
KES1 102339Z 13007KT 09/M02 A3028 RMK A01 T00901018  RH  047%=      5-min Rain = 0
KES1 102340Z 13007KT 09/M02 A3027 RMK A01 T00901018  RH  047%=      5-min Rain = 0
KES1 102341Z 13007KT 09/M02 A3027 RMK A01 T00891018  RH  047%=      5-min Rain = 0
KES1 102342Z 13007KT 09/M02 A3028 RMK A01 T00891018  RH  047%=      5-min Rain = 0
KES1 102343Z 13007KT 09/M02 A3028 RMK A01 T00881018  RH  047%=      5-min Rain = 0
KES1 102344Z 13007KT 09/M02 A3028 RMK A01 T00871018  RH  048%=      5-min Rain = 0
KES1 102345Z 13007KT 09/M02 A3028 RMK A01 T00871017  RH  048%=      5-min Rain = 0
KES1 102346Z 13007KT 09/M02 A3028 RMK A01 T00871018  RH  048%=      5-min Rain = 0
KES1 102347Z 12007KT 09/M02 A3028 RMK A01 T00881017  RH  048%=      5-min Rain = 0
KES1 102348Z 13007KT 09/M02 A3028 RMK A01 T00871017  RH  048%=      5-min Rain = 0
KES1 102349Z 12006KT 09/M02 A3028 RMK A01 T00861017  RH  048%=      5-min Rain = 0
KES1 102350Z 12006KT 09/M02 A3028 RMK A01 T00851017  RH  049%=      5-min Rain = 0
KES1 102351Z 13007KT 08/M02 A3028 RMK A01 T00841017  RH  049%=      5-min Rain = 0
KES1 102352Z 13007KT 08/M02 A3028 RMK A01 T00831017  RH  049%=      5-min Rain = 0
KES1 102353Z 13007KT 08/M02 A3028 RMK A01 T00831016  RH  049%=      5-min Rain = 0
KES1 102354Z 13007KT 08/M02 A3028 RMK A01 T00841015  RH  050%=      5-min Rain = 0
KES1 102355Z 13008KT 08/M02 A3028 RMK A01 T00841015  RH  050%=      5-min Rain = 0
KES1 102356Z 13008KT 08/M02 A3028 RMK A01 T00841015  RH  050%=      5-min Rain = 0
KES1 102357Z 13008KT 08/M01 A3028 RMK A01 T00841014  RH  050%=      5-min Rain = 0
KES1 102358Z 13008KT 08/M01 A3028 RMK A01 T00841014  RH  050%=      5-min Rain = 0
KES1 102359Z 13008KT 08/M01 A3028 RMK A01 T00841014  RH  050%=      5-min Rain = 0
KES1 110000Z 13008KT 08/M01 A3028 RMK A01 T00831014  RH  050%=      5-min Rain = 0
KES1 110001Z 13008KT 08/M01 A3028 RMK A01 T00831014  RH  050%=      5-min Rain = 0
KES1 110002Z 13008KT 08/M01 A3028 RMK A01 T00821014  RH  051%=      5-min Rain = 0
KES1 110003Z 13008KT 08/M01 A3028 RMK A01 T00821014  RH  051%=      5-min Rain = 0
KES1 110004Z 13008KT 08/M01 A3028 RMK A01 T00811014  RH  051%=      5-min Rain = 0
KES1 110005Z 13008KT 08/M01 A3028 RMK A01 T00811014  RH  051%=      5-min Rain = 0
KES1 110006Z 13008KT 08/M02 A3028 RMK A01 T00801015  RH  051%=      5-min Rain = 0
KES1 110007Z 13008KT 08/M02 A3028 RMK A01 T00791015  RH  051%=      5-min Rain = 0
KES1 110008Z 13008KT 08/M02 A3028 RMK A01 T00791015  RH  051%=      5-min Rain = 0
KES1 110009Z 13008KT 08/M02 A3028 RMK A01 T00791015  RH  051%=      5-min Rain = 0
KES1 110010Z 13009KT 08/M02 A3028 RMK A01 T00791015  RH  052%=      5-min Rain = 0
KES1 110011Z 13009KT 08/M02 A3028 RMK A01 T00791015  RH  051%=      5-min Rain = 0
KES1 110012Z 13009KT 08/M02 A3028 RMK A01 T00791015  RH  051%=      5-min Rain = 0
KES1 110013Z 14009KT 08/M02 A3028 RMK A01 T00791015  RH  051%=      5-min Rain = 0
KES1 110014Z 14009KT 08/M02 A3028 RMK A01 T00791015  RH  051%=      5-min Rain = 0
KES1 110015Z 14008KT 08/M02 A3028 RMK A01 T00791015  RH  051%=      5-min Rain = 0
KES1 110016Z 14008KT 08/M02 A3028 RMK A01 T00771016  RH  052%=      5-min Rain = 0
KES1 110017Z 14008KT 08/M02 A3028 RMK A01 T00761016  RH  052%=      5-min Rain = 0
KES1 110018Z 14008KT 08/M02 A3028 RMK A01 T00761015  RH  052%=      5-min Rain = 0
KES1 110019Z 14009KT 08/M02 A3028 RMK A01 T00751016  RH  053%=      5-min Rain = 0
KES1 110020Z 14009KT 07/M02 A3028 RMK A01 T00741016  RH  053%=      5-min Rain = 0
KES1 110021Z 14008KT 07/M02 A3028 RMK A01 T00741016  RH  053%=      5-min Rain = 0
KES1 110022Z 14009KT 07/M02 A3028 RMK A01 T00741016  RH  053%=      5-min Rain = 0
KES1 110023Z 14009KT 07/M02 A3028 RMK A01 T00731016  RH  053%=      5-min Rain = 0
KES1 110024Z 14009KT 07/M02 A3028 RMK A01 T00731016  RH  053%=      5-min Rain = 0
KES1 110025Z 14009KT 07/M02 A3028 RMK A01 T00721017  RH  053%=      5-min Rain = 0
KES1 110026Z 14009KT 07/M02 A3028 RMK A01 T00711017  RH  053%=      5-min Rain = 0
KES1 110027Z 14009KT 07/M02 A3028 RMK A01 T00711017  RH  054%=      5-min Rain = 0
KES1 110028Z 14009KT 07/M02 A3028 RMK A01 T00711017  RH  054%=      5-min Rain = 0
KES1 110029Z 14010KT 07/M02 A3028 RMK A01 T00711017  RH  054%=      5-min Rain = 0
KES1 110030Z 14009KT 07/M02 A3028 RMK A01 T00711016  RH  054%=      5-min Rain = 0
KES1 110031Z 14009KT 07/M02 A3028 RMK A01 T00701017  RH  054%=      5-min Rain = 0
KES1 110032Z 14010KT 07/M02 A3028 RMK A01 T00701017  RH  054%=      5-min Rain = 0
KES1 110033Z 14009KT 07/M02 A3028 RMK A01 T00701016  RH  054%=      5-min Rain = 0
KES1 110034Z 15009KT 07/M02 A3028 RMK A01 T00691017  RH  054%=      5-min Rain = 0
KES1 110035Z 15009KT 07/M02 A3028 RMK A01 T00691017  RH  054%=      5-min Rain = 0
KES1 110036Z 15009KT 07/M02 A3028 RMK A01 T00681017  RH  055%=      5-min Rain = 0
KES1 110037Z 16008KT 07/M02 A3028 RMK A01 T00671017  RH  055%=      5-min Rain = 0
KES1 110038Z 16009KT 07/M02 A3028 RMK A01 T00661018  RH  055%=      5-min Rain = 0
KES1 110039Z 16007KT 07/M02 A3028 RMK A01 T00661018  RH  055%=      5-min Rain = 0
KES1 110040Z 16007KT 06/M02 A3028 RMK A01 T00641019  RH  055%=      5-min Rain = 0
KES1 110041Z 15008KT 06/M02 A3028 RMK A01 T00631019  RH  056%=      5-min Rain = 0
KES1 110042Z 15009KT 06/M02 A3028 RMK A01 T00611020  RH  056%=      5-min Rain = 0
KES1 110043Z 15009KT 06/M02 A3028 RMK A01 T00601020  RH  057%=      5-min Rain = 0
KES1 110044Z 15009KT 06/M02 A3028 RMK A01 T00591020  RH  057%=      5-min Rain = 0
KES1 110045Z 15009KT 06/M02 A3028 RMK A01 T00581020  RH  057%=      5-min Rain = 0
KES1 110046Z 15009KT 06/M02 A3028 RMK A01 T00571020  RH  058%=      5-min Rain = 0
KES1 110047Z 15009KT 06/M02 A3028 RMK A01 T00561020  RH  058%=      5-min Rain = 0
KES1 110048Z 15009KT 06/M02 A3028 RMK A01 T00551020  RH  058%=      5-min Rain = 0
KES1 110049Z 15009KT 05/M02 A3028 RMK A01 T00541020  RH  059%=      5-min Rain = 0
KES1 110050Z 15009KT 05/M02 A3028 RMK A01 T00541020  RH  059%=      5-min Rain = 0
KES1 110051Z 15009KT 05/M02 A3028 RMK A01 T00541020  RH  059%=      5-min Rain = 0
KES1 110052Z 15009KT 05/M02 A3028 RMK A01 T00541020  RH  059%=      5-min Rain = 0
KES1 110053Z 15009KT 05/M02 A3028 RMK A01 T00541020  RH  059%=      5-min Rain = 0
KES1 110054Z 16009KT 05/M02 A3028 RMK A01 T00541020  RH  059%=      5-min Rain = 0
KES1 110055Z 15010KT 05/M02 A3028 RMK A01 T00541020  RH  059%=      5-min Rain = 0
KES1 110056Z 15010KT 05/M02 A3028 RMK A01 T00541020  RH  059%=      5-min Rain = 0
KES1 110057Z 15009KT 05/M02 A3028 RMK A01 T00541020  RH  059%=      5-min Rain = 0
KES1 110058Z 15009KT 05/M02 A3028 RMK A01 T00531020  RH  059%=      5-min Rain = 0
KES1 110059Z 15009KT 05/M02 A3028 RMK A01 T00531020  RH  060%=      5-min Rain = 0
KES1 110100Z 15010KT 05/M02 A3028 RMK A01 T00521020  RH  060%=      5-min Rain = 0
KES1 110101Z 15009KT 05/M02 A3028 RMK A01 T00531020  RH  059%=      5-min Rain = 0
KES1 110102Z 15009KT 05/M02 A3028 RMK A01 T00531020  RH  059%=      5-min Rain = 0
KES1 110103Z 15009KT 05/M02 A3028 RMK A01 T00531020  RH  059%=      5-min Rain = 0
KES1 110104Z 15009KT 05/M02 A3028 RMK A01 T00531021  RH  059%=      5-min Rain = 0
KES1 110105Z 14010KT 05/M02 A3028 RMK A01 T00531021  RH  059%=      5-min Rain = 0
KES1 110106Z 15009KT 05/M02 A3028 RMK A01 T00541021  RH  058%=      5-min Rain = 0
KES1 110107Z 15009KT 06/M02 A3028 RMK A01 T00551021  RH  058%=      5-min Rain = 0
KES1 110108Z 15009KT 06/M02 A3028 RMK A01 T00551022  RH  058%=      5-min Rain = 0
KES1 110109Z 15009KT 06/M02 A3028 RMK A01 T00551022  RH  058%=      5-min Rain = 0
KES1 110110Z 14009KT 06/M02 A3028 RMK A01 T00551022  RH  058%=      5-min Rain = 0
KES1 110111Z 14010KT 06/M02 A3028 RMK A01 T00551022  RH  058%=      5-min Rain = 0
KES1 110112Z 14010KT 06/M02 A3028 RMK A01 T00551022  RH  058%=      5-min Rain = 0
KES1 110113Z 14009KT 06/M02 A3028 RMK A01 T00561022  RH  057%=      5-min Rain = 0
KES1 110114Z 14009KT 06/M02 A3028 RMK A01 T00561022  RH  057%=      5-min Rain = 0
KES1 110115Z 14009KT 06/M02 A3028 RMK A01 T00561022  RH  057%=      5-min Rain = 0
KES1 110116Z 14009KT 06/M02 A3028 RMK A01 T00561023  RH  057%=      5-min Rain = 0
KES1 110117Z 14009KT 06/M02 A3028 RMK A01 T00561023  RH  057%=      5-min Rain = 0
KES1 110118Z 15009KT 06/M02 A3028 RMK A01 T00561023  RH  057%=      5-min Rain = 0
KES1 110119Z 15009KT 06/M02 A3028 RMK A01 T00571023  RH  057%=      5-min Rain = 0
KES1 110120Z 14009KT 06/M02 A3028 RMK A01 T00571023  RH  057%=      5-min Rain = 0
KES1 110121Z 14009KT 06/M02 A3028 RMK A01 T00571023  RH  057%=      5-min Rain = 0
KES1 110122Z 15009KT 06/M02 A3028 RMK A01 T00571023  RH  057%=      5-min Rain = 0
KES1 110123Z 14009KT 06/M02 A3028 RMK A01 T00571023  RH  057%=      5-min Rain = 0
KES1 110124Z 14009KT 06/M02 A3028 RMK A01 T00561023  RH  057%=      5-min Rain = 0
KES1 110125Z 14009KT 06/M02 A3028 RMK A01 T00561023  RH  057%=      5-min Rain = 0
KES1 110126Z 14009KT 06/M02 A3028 RMK A01 T00561023  RH  057%=      5-min Rain = 0
KES1 110127Z 14008KT 06/M02 A3028 RMK A01 T00561023  RH  057%=      5-min Rain = 0
KES1 110128Z 15008KT 06/M02 A3028 RMK A01 T00561023  RH  057%=      5-min Rain = 0
KES1 110129Z 15008KT 06/M02 A3028 RMK A01 T00551023  RH  057%=      5-min Rain = 0
KES1 110130Z 15008KT 05/M02 A3028 RMK A01 T00541023  RH  058%=      5-min Rain = 0
KES1 110131Z 14008KT 05/M02 A3028 RMK A01 T00531023  RH  058%=      5-min Rain = 0
KES1 110132Z 15008KT 05/M02 A3028 RMK A01 T00521023  RH  058%=      5-min Rain = 0
KES1 110133Z 15009KT 05/M02 A3028 RMK A01 T00511023  RH  059%=      5-min Rain = 0
KES1 110134Z 15009KT 05/M02 A3028 RMK A01 T00501023  RH  059%=      5-min Rain = 0
KES1 110135Z 15009KT 05/M02 A3028 RMK A01 T00501023  RH  059%=      5-min Rain = 0
KES1 110136Z 15008KT 05/M02 A3028 RMK A01 T00501023  RH  059%=      5-min Rain = 0
KES1 110137Z 15009KT 05/M02 A3028 RMK A01 T00501023  RH  059%=      5-min Rain = 0
KES1 110138Z 15008KT 05/M02 A3028 RMK A01 T00501023  RH  059%=      5-min Rain = 0
KES1 110139Z 15008KT 05/M02 A3028 RMK A01 T00501023  RH  060%=      5-min Rain = 0
KES1 110140Z 15008KT 05/M02 A3028 RMK A01 T00491022  RH  060%=      5-min Rain = 0
KES1 110141Z 15008KT 05/M02 A3028 RMK A01 T00491023  RH  060%=      5-min Rain = 0
KES1 110142Z 16007KT 05/M02 A3028 RMK A01 T00481023  RH  060%=      5-min Rain = 0
KES1 110143Z 16007KT 05/M02 A3028 RMK A01 T00481023  RH  060%=      5-min Rain = 0
KES1 110144Z 17007KT 05/M02 A3028 RMK A01 T00471022  RH  061%=      5-min Rain = 0
KES1 110145Z 17006KT 05/M02 A3028 RMK A01 T00471022  RH  061%=      5-min Rain = 0
KES1 110146Z 16006KT 05/M02 A3028 RMK A01 T00471021  RH  061%=      5-min Rain = 0
KES1 110147Z 17007KT 05/M02 A3028 RMK A01 T00471021  RH  061%=      5-min Rain = 0
KES1 110148Z 16007KT 05/M02 A3028 RMK A01 T00471021  RH  061%=      5-min Rain = 0
KES1 110149Z 16007KT 05/M02 A3028 RMK A01 T00471020  RH  062%=      5-min Rain = 0
KES1 110150Z 17006KT 05/M02 A3028 RMK A01 T00471020  RH  062%=      5-min Rain = 0
KES1 110151Z 17006KT 05/M02 A3028 RMK A01 T00461020  RH  062%=      5-min Rain = 0
KES1 110152Z 17006KT 04/M02 A3028 RMK A01 T00441020  RH  063%=      5-min Rain = 0
KES1 110153Z 17007KT 04/M02 A3028 RMK A01 T00431020  RH  064%=      5-min Rain = 0
KES1 110154Z 17007KT 04/M02 A3028 RMK A01 T00431018  RH  064%=      5-min Rain = 0
KES1 110155Z 16007KT 04/M02 A3028 RMK A01 T00441018  RH  064%=      5-min Rain = 0
KES1 110156Z 16006KT 04/M02 A3028 RMK A01 T00441019  RH  064%=      5-min Rain = 0
KES1 110157Z 16007KT 04/M02 A3028 RMK A01 T00421020  RH  064%=      5-min Rain = 0
KES1 110158Z 16007KT 04/M02 A3028 RMK A01 T00401020  RH  065%=      5-min Rain = 0
KES1 110159Z 16007KT 04/M02 A3028 RMK A01 T00391020  RH  065%=      5-min Rain = 0
KES1 110200Z 16007KT 04/M02 A3028 RMK A01 T00381020  RH  066%=      5-min Rain = 0
KES1 110201Z 16007KT 04/M02 A3028 RMK A01 T00371019  RH  067%=      5-min Rain = 0
KES1 110202Z 16008KT 04/M02 A3028 RMK A01 T00361019  RH  067%=      5-min Rain = 0
KES1 110203Z 16007KT 04/M02 A3028 RMK A01 T00361018  RH  068%=      5-min Rain = 0
KES1 110204Z 16008KT 04/M02 A3028 RMK A01 T00361018  RH  068%=      5-min Rain = 0
KES1 110205Z 16008KT 04/M02 A3028 RMK A01 T00361018  RH  068%=      5-min Rain = 0
KES1 110206Z 16008KT 04/M02 A3028 RMK A01 T00361017  RH  069%=      5-min Rain = 0
KES1 110207Z 16007KT 04/M02 A3028 RMK A01 T00361016  RH  069%=      5-min Rain = 0
KES1 110208Z 16008KT 04/M02 A3028 RMK A01 T00361015  RH  069%=      5-min Rain = 0
KES1 110209Z 17007KT 04/M01 A3028 RMK A01 T00371014  RH  069%=      5-min Rain = 0
KES1 110210Z 17008KT 04/M01 A3028 RMK A01 T00391012  RH  069%=      5-min Rain = 0
KES1 110211Z 17008KT 04/M01 A3028 RMK A01 T00411011  RH  069%=      5-min Rain = 0
KES1 110212Z 17007KT 04/M01 A3028 RMK A01 T00421010  RH  069%=      5-min Rain = 0
KES1 110213Z 16008KT 04/M01 A3027 RMK A01 T00421010  RH  069%=      5-min Rain = 0
KES1 110214Z 16008KT 04/M01 A3027 RMK A01 T00421010  RH  069%=      5-min Rain = 0
KES1 110215Z 16007KT 04/M01 A3027 RMK A01 T00431010  RH  069%=      5-min Rain = 0
KES1 110216Z 17007KT 04/M01 A3027 RMK A01 T00431010  RH  068%=      5-min Rain = 0
KES1 110217Z 17007KT 04/M01 A3027 RMK A01 T00431010  RH  069%=      5-min Rain = 0
KES1 110218Z 17007KT 04/M01 A3027 RMK A01 T00431009  RH  069%=      5-min Rain = 0
KES1 110219Z 17008KT 04/M01 A3027 RMK A01 T00431009  RH  069%=      5-min Rain = 0
KES1 110220Z 17007KT 04/M01 A3027 RMK A01 T00431008  RH  070%=      5-min Rain = 0
KES1 110221Z 17007KT 04/M01 A3027 RMK A01 T00421008  RH  070%=      5-min Rain = 0
KES1 110222Z 17007KT 04/M01 A3027 RMK A01 T00421008  RH  070%=      5-min Rain = 0
KES1 110223Z 17007KT 04/M01 A3027 RMK A01 T00421007  RH  071%=      5-min Rain = 0
KES1 110224Z 17006KT 04/M01 A3028 RMK A01 T00421007  RH  071%=      5-min Rain = 0
KES1 110225Z 17006KT 04/M01 A3028 RMK A01 T00421007  RH  070%=      5-min Rain = 0
KES1 110226Z 17007KT 04/M01 A3028 RMK A01 T00421007  RH  071%=      5-min Rain = 0
KES1 110227Z 17007KT 04/M01 A3028 RMK A01 T00411007  RH  071%=      5-min Rain = 0
KES1 110228Z 17006KT 04/M01 A3028 RMK A01 T00391008  RH  071%=      5-min Rain = 0
KES1 110229Z 17007KT 04/M01 A3028 RMK A01 T00381008  RH  072%=      5-min Rain = 0
KES1 110230Z 18008KT 04/M01 A3028 RMK A01 T00361009  RH  072%=      5-min Rain = 0
KES1 110231Z 18009KT 04/M01 A3028 RMK A01 T00361008  RH  073%=      5-min Rain = 0
KES1 110232Z 18008KT 04/M01 A3028 RMK A01 T00351007  RH  074%=      5-min Rain = 0
KES1 110233Z 18008KT 04/M01 A3028 RMK A01 T00361006  RH  074%=      5-min Rain = 0
KES1 110234Z 18007KT 04/M01 A3028 RMK A01 T00361006  RH  074%=      5-min Rain = 0
KES1 110235Z 18008KT 04/M00 A3028 RMK A01 T00381004  RH  074%=      5-min Rain = 0
KES1 110236Z 18008KT 04/M00 A3028 RMK A01 T00381004  RH  074%=      5-min Rain = 0
KES1 110237Z 18008KT 04/M00 A3028 RMK A01 T00391003  RH  074%=      5-min Rain = 0
KES1 110238Z 18007KT 04/M00 A3028 RMK A01 T00391004  RH  074%=      5-min Rain = 0
KES1 110239Z 16006KT 04/M01 A3028 RMK A01 T00391005  RH  073%=      5-min Rain = 0
KES1 110240Z 14007KT 04/M01 A3028 RMK A01 T00361008  RH  073%=      5-min Rain = 0
KES1 110241Z 16009KT 03/M01 A3028 RMK A01 T00331010  RH  074%=      5-min Rain = 0
KES1 110242Z 18008KT 03/M01 A3028 RMK A01 T00311009  RH  075%=      5-min Rain = 0
KES1 110243Z 18009KT 03/M01 A3027 RMK A01 T00301008  RH  076%=      5-min Rain = 0
KES1 110244Z 18010KT 03/M01 A3027 RMK A01 T00321005  RH  077%=      5-min Rain = 0
KES1 110245Z 18009KT 03/M00 A3027 RMK A01 T00341004  RH  076%=      5-min Rain = 0
KES1 110246Z 16007KT 04/M01 A3027 RMK A01 T00351005  RH  075%=      5-min Rain = 0
KES1 110247Z 15007KT 04/M01 A3027 RMK A01 T00351006  RH  075%=      5-min Rain = 0
KES1 110248Z 17008KT 03/M01 A3027 RMK A01 T00331007  RH  075%=      5-min Rain = 0
KES1 110249Z 17008KT 03/M01 A3027 RMK A01 T00311007  RH  076%=      5-min Rain = 0
KES1 110250Z 16007KT 03/M01 A3027 RMK A01 T00301008  RH  076%=      5-min Rain = 0
KES1 110251Z 16008KT 03/M01 A3027 RMK A01 T00291008  RH  077%=      5-min Rain = 0
KES1 110252Z 17009KT 03/M01 A3027 RMK A01 T00281007  RH  077%=      5-min Rain = 0
KES1 110253Z 17008KT 03/M01 A3027 RMK A01 T00281007  RH  078%=      5-min Rain = 0
KES1 110254Z 18009KT 03/M01 A3027 RMK A01 T00291005  RH  078%=      5-min Rain = 0
KES1 110255Z 18010KT 03/M00 A3027 RMK A01 T00311004  RH  078%=      5-min Rain = 0
KES1 110256Z 18009KT 03/M00 A3027 RMK A01 T00331003  RH  077%=      5-min Rain = 0
KES1 110257Z 18009KT 04/M00 A3027 RMK A01 T00351003  RH  076%=      5-min Rain = 0
KES1 110258Z 18009KT 04/M00 A3027 RMK A01 T00361003  RH  076%=      5-min Rain = 0
KES1 110259Z 18009KT 04/M00 A3027 RMK A01 T00361003  RH  075%=      5-min Rain = 0
KES1 110300Z 18010KT 04/M00 A3027 RMK A01 T00371002  RH  075%=      5-min Rain = 0
KES1 110301Z 18008KT 04/M00 A3027 RMK A01 T00391002  RH  075%=      5-min Rain = 0
KES1 110302Z 18008KT 04/M00 A3027 RMK A01 T00391002  RH  074%=      5-min Rain = 0
KES1 110303Z 18008KT 04/M00 A3027 RMK A01 T00391003  RH  074%=      5-min Rain = 0
KES1 110304Z 18007KT 04/M00 A3028 RMK A01 T00391004  RH  074%=      5-min Rain = 0
KES1 110305Z 18008KT 04/M01 A3028 RMK A01 T00371005  RH  074%=      5-min Rain = 0
KES1 110306Z 18008KT 04/M01 A3028 RMK A01 T00351005  RH  075%=      5-min Rain = 0
KES1 110307Z 18008KT 04/M01 A3028 RMK A01 T00351005  RH  075%=      5-min Rain = 0
KES1 110308Z 18008KT 04/M00 A3028 RMK A01 T00351004  RH  075%=      5-min Rain = 0
KES1 110309Z 18009KT 04/M00 A3028 RMK A01 T00351004  RH  075%=      5-min Rain = 0
KES1 110310Z 18008KT 04/M00 A3028 RMK A01 T00361003  RH  075%=      5-min Rain = 0
KES1 110311Z 18009KT 04/M00 A3028 RMK A01 T00371003  RH  075%=      5-min Rain = 0
KES1 110312Z 18008KT 04/M00 A3027 RMK A01 T00381003  RH  075%=      5-min Rain = 0
KES1 110313Z 18008KT 04/M00 A3027 RMK A01 T00391002  RH  074%=      5-min Rain = 0
KES1 110314Z 18007KT 04/M00 A3027 RMK A01 T00411002  RH  074%=      5-min Rain = 0
KES1 110315Z 18007KT 04/M00 A3028 RMK A01 T00401003  RH  074%=      5-min Rain = 0
KES1 110316Z 17006KT 04/M00 A3028 RMK A01 T00391004  RH  073%=      5-min Rain = 0
KES1 110317Z 18006KT 04/M01 A3028 RMK A01 T00361007  RH  073%=      5-min Rain = 0
KES1 110318Z 18007KT 03/M01 A3028 RMK A01 T00311010  RH  074%=      5-min Rain = 0
KES1 110319Z 18008KT 03/M01 A3028 RMK A01 T00291008  RH  077%=      5-min Rain = 0
KES1 110320Z 19008KT 03/M00 A3028 RMK A01 T00321003  RH  078%=      5-min Rain = 0
KES1 110321Z 19008KT 03/M00 A3028 RMK A01 T00341003  RH  077%=      5-min Rain = 0
KES1 110322Z 19008KT 04/M00 A3028 RMK A01 T00361002  RH  076%=      5-min Rain = 0
KES1 110323Z 19008KT 04/M00 A3028 RMK A01 T00381002  RH  075%=      5-min Rain = 0
KES1 110324Z 18007KT 04/M00 A3028 RMK A01 T00391002  RH  074%=      5-min Rain = 0
KES1 110325Z 17005KT 04/M00 A3028 RMK A01 T00401003  RH  074%=      5-min Rain = 0
KES1 110326Z 16004KT 04/M00 A3028 RMK A01 T00381004  RH  074%=      5-min Rain = 0
KES1 110327Z 16005KT 03/M01 A3028 RMK A01 T00341008  RH  074%=      5-min Rain = 0
KES1 110328Z 17005KT 03/M01 A3028 RMK A01 T00291012  RH  075%=      5-min Rain = 0
KES1 110329Z 17006KT 03/M01 A3028 RMK A01 T00251013  RH  076%=      5-min Rain = 0
KES1 110330Z 17007KT 02/M01 A3028 RMK A01 T00221012  RH  078%=      5-min Rain = 0
KES1 110331Z 15007KT 02/M01 A3028 RMK A01 T00211011  RH  079%=      5-min Rain = 0
KES1 110332Z 17008KT 02/M01 A3028 RMK A01 T00201011  RH  080%=      5-min Rain = 0
KES1 110333Z 18008KT 02/M01 A3028 RMK A01 T00191010  RH  081%=      5-min Rain = 0
KES1 110334Z 17007KT 02/M01 A3028 RMK A01 T00211008  RH  081%=      5-min Rain = 0
KES1 110335Z 15007KT 02/M01 A3028 RMK A01 T00211008  RH  081%=      5-min Rain = 0
KES1 110336Z 16008KT 02/M01 A3028 RMK A01 T00201010  RH  080%=      5-min Rain = 0
KES1 110337Z 17007KT 02/M01 A3028 RMK A01 T00181011  RH  081%=      5-min Rain = 0
KES1 110338Z 18009KT 02/M01 A3028 RMK A01 T00171010  RH  082%=      5-min Rain = 0
KES1 110339Z 19009KT 02/M01 A3028 RMK A01 T00191008  RH  083%=      5-min Rain = 0
KES1 110340Z 18009KT 02/M01 A3028 RMK A01 T00221006  RH  082%=      5-min Rain = 0
KES1 110341Z 19009KT 03/M01 A3028 RMK A01 T00251005  RH  080%=      5-min Rain = 0
KES1 110342Z 19009KT 03/M01 A3028 RMK A01 T00271005  RH  079%=      5-min Rain = 0
KES1 110343Z 19009KT 03/M01 A3028 RMK A01 T00281005  RH  079%=      5-min Rain = 0
KES1 110344Z 20007KT 03/M01 A3028 RMK A01 T00291005  RH  078%=      5-min Rain = 0
KES1 110345Z 20007KT 03/M01 A3028 RMK A01 T00301005  RH  077%=      5-min Rain = 0
KES1 110346Z 20008KT 03/M01 A3028 RMK A01 T00301006  RH  077%=      5-min Rain = 0
KES1 110347Z 20008KT 03/M01 A3028 RMK A01 T00311006  RH  077%=      5-min Rain = 0
KES1 110348Z 20008KT 03/M01 A3028 RMK A01 T00311005  RH  077%=      5-min Rain = 0
KES1 110349Z 20007KT 03/M01 A3028 RMK A01 T00311006  RH  077%=      5-min Rain = 0
KES1 110350Z 20007KT 03/M01 A3028 RMK A01 T00311006  RH  077%=      5-min Rain = 0
KES1 110351Z 21006KT 03/M01 A3028 RMK A01 T00311006  RH  077%=      5-min Rain = 0
KES1 110352Z 20006KT 03/M01 A3028 RMK A01 T00301007  RH  077%=      5-min Rain = 0
KES1 110353Z 20006KT 03/M01 A3028 RMK A01 T00291007  RH  077%=      5-min Rain = 0
KES1 110354Z 20007KT 03/M01 A3028 RMK A01 T00281007  RH  078%=      5-min Rain = 0
KES1 110355Z 20007KT 03/M01 A3028 RMK A01 T00281007  RH  078%=      5-min Rain = 0
KES1 110356Z 20007KT 03/M01 A3028 RMK A01 T00281007  RH  078%=      5-min Rain = 0
KES1 110357Z 21008KT 03/M01 A3028 RMK A01 T00271007  RH  078%=      5-min Rain = 0
KES1 110358Z 21007KT 03/M01 A3028 RMK A01 T00271007  RH  078%=      5-min Rain = 0
KES1 110359Z 21007KT 03/M01 A3028 RMK A01 T00281006  RH  078%=      5-min Rain = 0
KES1 110400Z 20007KT 03/M01 A3028 RMK A01 T00281006  RH  078%=      5-min Rain = 0
KES1 110401Z 21007KT 03/M01 A3028 RMK A01 T00291006  RH  078%=      5-min Rain = 0
KES1 110402Z 21007KT 03/M01 A3028 RMK A01 T00291005  RH  078%=      5-min Rain = 0
KES1 110403Z 21006KT 03/M01 A3028 RMK A01 T00291005  RH  078%=      5-min Rain = 0
KES1 110404Z 21006KT 03/M01 A3028 RMK A01 T00291005  RH  078%=      5-min Rain = 0
KES1 110405Z 21005KT 03/M01 A3028 RMK A01 T00291005  RH  078%=      5-min Rain = 0
KES1 110406Z 21006KT 03/M01 A3028 RMK A01 T00291005  RH  078%=      5-min Rain = 0
KES1 110407Z 21006KT 03/M01 A3028 RMK A01 T00291005  RH  078%=      5-min Rain = 0
KES1 110408Z 21007KT 03/M01 A3028 RMK A01 T00291005  RH  078%=      5-min Rain = 0
KES1 110409Z 21007KT 03/M01 A3028 RMK A01 T00291005  RH  079%=      5-min Rain = 0
KES1 110410Z 21007KT 03/M01 A3028 RMK A01 T00291005  RH  078%=      5-min Rain = 0
KES1 110411Z 21006KT 03/M01 A3028 RMK A01 T00291005  RH  078%=      5-min Rain = 0
KES1 110412Z 21006KT 03/M01 A3028 RMK A01 T00281005  RH  079%=      5-min Rain = 0
KES1 110413Z 21006KT 03/M01 A3028 RMK A01 T00281005  RH  079%=      5-min Rain = 0
KES1 110414Z 21006KT 03/M01 A3028 RMK A01 T00271005  RH  079%=      5-min Rain = 0
KES1 110415Z 21005KT 03/M01 A3028 RMK A01 T00271005  RH  079%=      5-min Rain = 0
KES1 110416Z 20006KT 03/M01 A3028 RMK A01 T00271005  RH  079%=      5-min Rain = 0
KES1 110417Z 20006KT 03/M01 A3028 RMK A01 T00281005  RH  079%=      5-min Rain = 0
KES1 110418Z 20006KT 03/M00 A3028 RMK A01 T00291004  RH  079%=      5-min Rain = 0
KES1 110419Z 20006KT 03/M00 A3028 RMK A01 T00301003  RH  079%=      5-min Rain = 0
KES1 110420Z 20006KT 03/M00 A3028 RMK A01 T00301003  RH  078%=      5-min Rain = 0
KES1 110421Z 20006KT 03/M00 A3028 RMK A01 T00311004  RH  078%=      5-min Rain = 0
KES1 110422Z 20007KT 03/M00 A3028 RMK A01 T00311004  RH  078%=      5-min Rain = 0
KES1 110423Z 20007KT 03/M00 A3028 RMK A01 T00311004  RH  078%=      5-min Rain = 0
KES1 110424Z 20006KT 03/M00 A3028 RMK A01 T00321004  RH  077%=      5-min Rain = 0
KES1 110425Z 20006KT 03/M00 A3028 RMK A01 T00321004  RH  077%=      5-min Rain = 0
KES1 110426Z 20006KT 03/M01 A3028 RMK A01 T00321005  RH  077%=      5-min Rain = 0
KES1 110427Z 20007KT 03/M01 A3028 RMK A01 T00311005  RH  077%=      5-min Rain = 0
KES1 110428Z 21008KT 03/M00 A3028 RMK A01 T00311004  RH  077%=      5-min Rain = 0
KES1 110429Z 20008KT 03/M00 A3028 RMK A01 T00321004  RH  077%=      5-min Rain = 0
KES1 110430Z 20007KT 03/M00 A3028 RMK A01 T00331004  RH  077%=      5-min Rain = 0
KES1 110431Z 20008KT 03/M00 A3028 RMK A01 T00341004  RH  076%=      5-min Rain = 0
KES1 110432Z 21007KT 03/M00 A3028 RMK A01 T00341004  RH  076%=      5-min Rain = 0
KES1 110433Z 21008KT 03/M00 A3028 RMK A01 T00341003  RH  076%=      5-min Rain = 0
KES1 110434Z 21007KT 03/M00 A3028 RMK A01 T00341004  RH  076%=      5-min Rain = 0
KES1 110435Z 20007KT 03/M00 A3028 RMK A01 T00341004  RH  076%=      5-min Rain = 0
KES1 110436Z 20007KT 03/M00 A3028 RMK A01 T00331004  RH  077%=      5-min Rain = 0
KES1 110437Z 20006KT 03/M00 A3028 RMK A01 T00331004  RH  077%=      5-min Rain = 0
KES1 110438Z 20007KT 03/M00 A3028 RMK A01 T00331004  RH  077%=      5-min Rain = 0
KES1 110439Z 19007KT 03/M00 A3028 RMK A01 T00331004  RH  077%=      5-min Rain = 0
KES1 110440Z 20007KT 03/M00 A3028 RMK A01 T00341004  RH  076%=      5-min Rain = 0
KES1 110441Z 20008KT 03/M00 A3028 RMK A01 T00341004  RH  076%=      5-min Rain = 0
KES1 110442Z 20008KT 04/M00 A3028 RMK A01 T00351004  RH  076%=      5-min Rain = 0
KES1 110443Z 19008KT 04/M00 A3028 RMK A01 T00361004  RH  075%=      5-min Rain = 0
KES1 110444Z 20008KT 04/M00 A3028 RMK A01 T00371004  RH  075%=      5-min Rain = 0
KES1 110445Z 20008KT 04/M00 A3028 RMK A01 T00371004  RH  075%=      5-min Rain = 0
KES1 110446Z 20008KT 04/M00 A3028 RMK A01 T00371004  RH  075%=      5-min Rain = 0
KES1 110447Z 20008KT 04/M00 A3028 RMK A01 T00371004  RH  074%=      5-min Rain = 0
KES1 110448Z 20007KT 04/M00 A3028 RMK A01 T00371004  RH  074%=      5-min Rain = 0
KES1 110449Z 20008KT 04/M00 A3028 RMK A01 T00371004  RH  074%=      5-min Rain = 0
KES1 110450Z 20008KT 04/M01 A3028 RMK A01 T00371005  RH  074%=      5-min Rain = 0
KES1 110451Z 20007KT 04/M01 A3028 RMK A01 T00361005  RH  075%=      5-min Rain = 0
KES1 110452Z 20007KT 04/M00 A3028 RMK A01 T00361004  RH  075%=      5-min Rain = 0
KES1 110453Z 21008KT 04/M01 A3028 RMK A01 T00351005  RH  075%=      5-min Rain = 0
KES1 110454Z 21008KT 04/M01 A3028 RMK A01 T00351005  RH  075%=      5-min Rain = 0
KES1 110455Z 20007KT 04/M01 A3028 RMK A01 T00351006  RH  075%=      5-min Rain = 0
KES1 110456Z 20008KT 04/M01 A3028 RMK A01 T00361005  RH  074%=      5-min Rain = 0
KES1 110457Z 20007KT 04/M01 A3028 RMK A01 T00351006  RH  074%=      5-min Rain = 0
KES1 110458Z 20008KT 04/M01 A3028 RMK A01 T00361006  RH  074%=      5-min Rain = 0
KES1 110459Z 20008KT 04/M01 A3028 RMK A01 T00361006  RH  074%=      5-min Rain = 0
KES1 110500Z 20007KT 04/M01 A3028 RMK A01 T00361006  RH  074%=      5-min Rain = 0
KES1 110501Z 20008KT 04/M01 A3028 RMK A01 T00351006  RH  074%=      5-min Rain = 0
KES1 110502Z 19008KT 04/M01 A3028 RMK A01 T00361006  RH  074%=      5-min Rain = 0
KES1 110503Z 20008KT 04/M01 A3027 RMK A01 T00361006  RH  074%=      5-min Rain = 0
KES1 110504Z 20009KT 04/M01 A3027 RMK A01 T00361006  RH  074%=      5-min Rain = 0
KES1 110505Z 20008KT 04/M01 A3027 RMK A01 T00361006  RH  074%=      5-min Rain = 0
KES1 110506Z 20008KT 04/M01 A3027 RMK A01 T00371006  RH  074%=      5-min Rain = 0
KES1 110507Z 20008KT 04/M01 A3027 RMK A01 T00361007  RH  073%=      5-min Rain = 0
KES1 110508Z 20007KT 04/M01 A3027 RMK A01 T00361007  RH  074%=      5-min Rain = 0
KES1 110509Z 20008KT 04/M01 A3027 RMK A01 T00351007  RH  074%=      5-min Rain = 0
KES1 110510Z 20007KT 04/M01 A3027 RMK A01 T00361007  RH  074%=      5-min Rain = 0
KES1 110511Z 20008KT 04/M01 A3027 RMK A01 T00361007  RH  073%=      5-min Rain = 0
KES1 110512Z 20007KT 04/M01 A3027 RMK A01 T00361007  RH  073%=      5-min Rain = 0
KES1 110513Z 20008KT 04/M01 A3027 RMK A01 T00351008  RH  074%=      5-min Rain = 0
KES1 110514Z 20007KT 04/M01 A3027 RMK A01 T00351008  RH  074%=      5-min Rain = 0
KES1 110515Z 20007KT 03/M01 A3027 RMK A01 T00341008  RH  074%=      5-min Rain = 0
KES1 110516Z 20007KT 03/M01 A3027 RMK A01 T00341008  RH  074%=      5-min Rain = 0
KES1 110517Z 20007KT 03/M01 A3027 RMK A01 T00331008  RH  075%=      5-min Rain = 0
KES1 110518Z 21007KT 03/M01 A3027 RMK A01 T00321008  RH  075%=      5-min Rain = 0
KES1 110519Z 20007KT 03/M01 A3027 RMK A01 T00311009  RH  075%=      5-min Rain = 0
KES1 110520Z 21008KT 03/M01 A3027 RMK A01 T00301009  RH  076%=      5-min Rain = 0
KES1 110521Z 21007KT 03/M01 A3027 RMK A01 T00301009  RH  076%=      5-min Rain = 0
KES1 110522Z 20008KT 03/M01 A3027 RMK A01 T00291009  RH  076%=      5-min Rain = 0
KES1 110523Z 20008KT 03/M01 A3027 RMK A01 T00291009  RH  076%=      5-min Rain = 0
KES1 110524Z 20007KT 03/M01 A3027 RMK A01 T00291009  RH  076%=      5-min Rain = 0
KES1 110525Z 20007KT 03/M01 A3027 RMK A01 T00281009  RH  076%=      5-min Rain = 0
KES1 110526Z 20008KT 03/M01 A3027 RMK A01 T00291009  RH  077%=      5-min Rain = 0
KES1 110527Z 19008KT 03/M01 A3027 RMK A01 T00281009  RH  077%=      5-min Rain = 0
KES1 110528Z 19008KT 03/M01 A3027 RMK A01 T00281009  RH  077%=      5-min Rain = 0
KES1 110529Z 20008KT 03/M01 A3027 RMK A01 T00281009  RH  077%=      5-min Rain = 0
KES1 110530Z 20007KT 03/M01 A3027 RMK A01 T00281010  RH  076%=      5-min Rain = 0
KES1 110531Z 20007KT 03/M01 A3027 RMK A01 T00281009  RH  076%=      5-min Rain = 0
KES1 110532Z 20007KT 03/M01 A3027 RMK A01 T00291009  RH  076%=      5-min Rain = 0
KES1 110533Z 20007KT 03/M01 A3027 RMK A01 T00291009  RH  076%=      5-min Rain = 0
KES1 110534Z 20007KT 03/M01 A3027 RMK A01 T00281010  RH  076%=      5-min Rain = 0
KES1 110535Z 20007KT 03/M01 A3027 RMK A01 T00281010  RH  076%=      5-min Rain = 0
KES1 110536Z 20007KT 03/M01 A3027 RMK A01 T00281010  RH  076%=      5-min Rain = 0
KES1 110537Z 21007KT 03/M01 A3027 RMK A01 T00281010  RH  076%=      5-min Rain = 0
KES1 110538Z 20007KT 03/M01 A3027 RMK A01 T00281010  RH  076%=      5-min Rain = 0
KES1 110539Z 20006KT 03/M01 A3027 RMK A01 T00281010  RH  076%=      5-min Rain = 0
KES1 110540Z 20007KT 03/M01 A3027 RMK A01 T00281010  RH  076%=      5-min Rain = 0
KES1 110541Z 20007KT 03/M01 A3027 RMK A01 T00281010  RH  076%=      5-min Rain = 0
KES1 110542Z 20007KT 03/M01 A3027 RMK A01 T00281010  RH  076%=      5-min Rain = 0
KES1 110543Z 20006KT 03/M01 A3027 RMK A01 T00281010  RH  076%=      5-min Rain = 0
KES1 110544Z 20007KT 03/M01 A3027 RMK A01 T00271010  RH  076%=      5-min Rain = 0
KES1 110545Z 20006KT 03/M01 A3027 RMK A01 T00271010  RH  076%=      5-min Rain = 0
KES1 110546Z 20007KT 03/M01 A3027 RMK A01 T00271010  RH  076%=      5-min Rain = 0
KES1 110547Z 20007KT 03/M01 A3027 RMK A01 T00271010  RH  076%=      5-min Rain = 0
KES1 110548Z 20006KT 03/M01 A3027 RMK A01 T00271010  RH  076%=      5-min Rain = 0
KES1 110549Z 20006KT 03/M01 A3027 RMK A01 T00271010  RH  076%=      5-min Rain = 0
KES1 110550Z 21007KT 03/M01 A3027 RMK A01 T00271010  RH  076%=      5-min Rain = 0
KES1 110551Z 21007KT 03/M01 A3027 RMK A01 T00271010  RH  076%=      5-min Rain = 0
KES1 110552Z 21007KT 03/M01 A3027 RMK A01 T00271010  RH  076%=      5-min Rain = 0
KES1 110553Z 21007KT 03/M01 A3027 RMK A01 T00281010  RH  076%=      5-min Rain = 0
KES1 110554Z 21006KT 03/M01 A3027 RMK A01 T00281010  RH  076%=      5-min Rain = 0
KES1 110555Z 21007KT 03/M01 A3027 RMK A01 T00281010  RH  076%=      5-min Rain = 0
KES1 110556Z 21006KT 03/M01 A3027 RMK A01 T00281010  RH  076%=      5-min Rain = 0
KES1 110557Z 21006KT 03/M01 A3027 RMK A01 T00281010  RH  076%=      5-min Rain = 0
KES1 110558Z 21005KT 03/M01 A3027 RMK A01 T00281010  RH  076%=      5-min Rain = 0
KES1 110559Z 21005KT 03/M01 A3027 RMK A01 T00281010  RH  076%=      5-min Rain = 0

Page generated in 0.1406 seconds.